Eleven Point River (Missouri), Ravenden Springs (07072000)

StateMissouriLatestLow (939 cfs)
RiverEleven Point RiverRatingObservedEstimated
Updated2021-01-20 0:45 (22 minutes ago)Flood - The river is flooding. Obstacles can be treacherous or deadly. The river should be avoided at this stage for casual trips and definitely for the inexperienced. Trips should be attempted only with protective gear and equipment.Flood(none)3301
Discharge939 cfs (median: 996 cfs)High - The river is high and potentially dangerous, especially for the young and / or inexperienced. Normal stream obstacles are sometimes difficult to navigate. Extended distances can be attempted, but canoe travel may not be advisable.High(none)1442
Height3.58 feetGood - Conditions are ideal for a canoe or kayak. Boats typically will drag on fewer than one-quarter of riffles, if at all, and portages are unnecessary or rare. Normal float lengths can be attempted without a problem.Good(none)1037
TrendSteady (falling over 24 hours)Low - River is low but can still be floated. Some riffles are okay but most come with significant dragging and might need a portage. Float lengths should be reduced to accommodate low flow, dragging, and portages.Low(none)785
USGSExternal icon USGS Site (External icon Google Maps)Poor - River is too low to float comfortably. Most or all riffles will drag or must be portaged and some obstacles (such as slick shelf rock) cause undue problems. Avoid the river at this stage for casual paddling trips.Poor(none)418

Trending Data

Plot Image

Trips for Eleven Point River (Missouri), Ravenden Springs (07072000)

DateStartEndDistanceConditionDischargeHeightFishingDetails

A total of 0 rows are displayed.

Condition Descriptions

Fishing Conditions

Fish Species

Notes

Classic Trip List

The classic River Trips application is still available for use. It is updated with the new system using a data retrofit. It is no longer maintained. The original River Trips application is no longer updated (as of 1 Dec 2016) but can be checked for errors or for the condition of the data before it was converted to the new system.

Gauge Data Table

ObservationHeightDischargeMaximum
Discharge
Minimum
Discharge
Mean
Discharge
P05P10P20P25P50
(Median)
P75P80P90P95
2021-01-20 00:45 3.58 939 4640 (1949) 258 (1957) 1120 338 399 477 520 996 1500 1650 2060 2560
2021-01-19 23:45 3.58 939 8250 (1949) 246 (1957) 1150 336 394 467 510 874 1470 1700 2030 2830
2021-01-19 22:45 3.59 945 8250 (1949) 246 (1957) 1150 336 394 467 510 874 1470 1700 2030 2830
2021-01-19 21:45 3.59 945 8250 (1949) 246 (1957) 1150 336 394 467 510 874 1470 1700 2030 2830
2021-01-19 20:45 3.59 945 8250 (1949) 246 (1957) 1150 336 394 467 510 874 1470 1700 2030 2830
2021-01-19 19:45 3.59 945 8250 (1949) 246 (1957) 1150 336 394 467 510 874 1470 1700 2030 2830
2021-01-19 18:45 3.59 945 8250 (1949) 246 (1957) 1150 336 394 467 510 874 1470 1700 2030 2830
2021-01-19 17:45 3.59 945 8250 (1949) 246 (1957) 1150 336 394 467 510 874 1470 1700 2030 2830
2021-01-19 16:45 3.59 945 8250 (1949) 246 (1957) 1150 336 394 467 510 874 1470 1700 2030 2830
2021-01-19 15:45 3.60 952 8250 (1949) 246 (1957) 1150 336 394 467 510 874 1470 1700 2030 2830
2021-01-19 14:45 3.60 952 8250 (1949) 246 (1957) 1150 336 394 467 510 874 1470 1700 2030 2830
2021-01-19 13:45 3.60 952 8250 (1949) 246 (1957) 1150 336 394 467 510 874 1470 1700 2030 2830
2021-01-19 12:45 3.60 952 8250 (1949) 246 (1957) 1150 336 394 467 510 874 1470 1700 2030 2830
2021-01-19 11:45 3.59 945 8250 (1949) 246 (1957) 1150 336 394 467 510 874 1470 1700 2030 2830
2021-01-19 10:45 3.60 952 8250 (1949) 246 (1957) 1150 336 394 467 510 874 1470 1700 2030 2830
2021-01-19 09:45 3.60 952 8250 (1949) 246 (1957) 1150 336 394 467 510 874 1470 1700 2030 2830
2021-01-19 08:45 3.59 945 8250 (1949) 246 (1957) 1150 336 394 467 510 874 1470 1700 2030 2830
2021-01-19 07:45 3.60 952 8250 (1949) 246 (1957) 1150 336 394 467 510 874 1470 1700 2030 2830
2021-01-19 06:45 3.60 952 8250 (1949) 246 (1957) 1150 336 394 467 510 874 1470 1700 2030 2830
2021-01-19 05:45 3.61 959 8250 (1949) 246 (1957) 1150 336 394 467 510 874 1470 1700 2030 2830
2021-01-19 04:45 3.61 959 8250 (1949) 246 (1957) 1150 336 394 467 510 874 1470 1700 2030 2830
2021-01-19 03:45 3.61 959 8250 (1949) 246 (1957) 1150 336 394 467 510 874 1470 1700 2030 2830
2021-01-19 02:45 3.61 959 8250 (1949) 246 (1957) 1150 336 394 467 510 874 1470 1700 2030 2830
2021-01-19 01:45 3.61 959 8250 (1949) 246 (1957) 1150 336 394 467 510 874 1470 1700 2030 2830
2021-01-19 00:45 3.61 959 8250 (1949) 246 (1957) 1150 336 394 467 510 874 1470 1700 2030 2830
2021-01-18 23:45 3.61 959 4880 (1949) 246 (1957) 1140 330 400 463 504 858 1500 1640 2250 3140
2021-01-18 22:45 3.62 965 4880 (1949) 246 (1957) 1140 330 400 463 504 858 1500 1640 2250 3140
2021-01-18 21:45 3.61 959 4880 (1949) 246 (1957) 1140 330 400 463 504 858 1500 1640 2250 3140
2021-01-18 20:45 3.61 959 4880 (1949) 246 (1957) 1140 330 400 463 504 858 1500 1640 2250 3140
2021-01-18 19:45 3.62 965 4880 (1949) 246 (1957) 1140 330 400 463 504 858 1500 1640 2250 3140
2021-01-18 18:45 3.62 965 4880 (1949) 246 (1957) 1140 330 400 463 504 858 1500 1640 2250 3140
2021-01-18 17:45 3.62 965 4880 (1949) 246 (1957) 1140 330 400 463 504 858 1500 1640 2250 3140
2021-01-18 16:45 3.62 965 4880 (1949) 246 (1957) 1140 330 400 463 504 858 1500 1640 2250 3140
2021-01-18 15:45 3.62 965 4880 (1949) 246 (1957) 1140 330 400 463 504 858 1500 1640 2250 3140
2021-01-18 14:45 3.62 965 4880 (1949) 246 (1957) 1140 330 400 463 504 858 1500 1640 2250 3140
2021-01-18 13:45 3.61 959 4880 (1949) 246 (1957) 1140 330 400 463 504 858 1500 1640 2250 3140
2021-01-18 12:45 3.63 972 4880 (1949) 246 (1957) 1140 330 400 463 504 858 1500 1640 2250 3140
2021-01-18 11:45 3.62 965 4880 (1949) 246 (1957) 1140 330 400 463 504 858 1500 1640 2250 3140
2021-01-18 10:45 3.62 965 4880 (1949) 246 (1957) 1140 330 400 463 504 858 1500 1640 2250 3140
2021-01-18 09:45 3.62 965 4880 (1949) 246 (1957) 1140 330 400 463 504 858 1500 1640 2250 3140
2021-01-18 08:45 3.62 965 4880 (1949) 246 (1957) 1140 330 400 463 504 858 1500 1640 2250 3140
2021-01-18 07:45 3.63 972 4880 (1949) 246 (1957) 1140 330 400 463 504 858 1500 1640 2250 3140
2021-01-18 06:45 3.63 972 4880 (1949) 246 (1957) 1140 330 400 463 504 858 1500 1640 2250 3140
2021-01-18 05:45 3.63 972 4880 (1949) 246 (1957) 1140 330 400 463 504 858 1500 1640 2250 3140
2021-01-18 04:45 3.63 972 4880 (1949) 246 (1957) 1140 330 400 463 504 858 1500 1640 2250 3140
2021-01-18 03:45 3.63 972 4880 (1949) 246 (1957) 1140 330 400 463 504 858 1500 1640 2250 3140
2021-01-18 02:45 3.63 972 4880 (1949) 246 (1957) 1140 330 400 463 504 858 1500 1640 2250 3140
2021-01-18 01:45 3.64 978 4880 (1949) 246 (1957) 1140 330 400 463 504 858 1500 1640 2250 3140
2021-01-18 00:45 3.64 978 4880 (1949) 246 (1957) 1140 330 400 463 504 858 1500 1640 2250 3140
2021-01-17 23:45 3.64 978 5670 (1932) 246 (1957) 1200 331 402 464 494 845 1570 1680 2260 3650
2021-01-17 22:45 3.64 978 5670 (1932) 246 (1957) 1200 331 402 464 494 845 1570 1680 2260 3650
2021-01-17 21:45 3.64 978 5670 (1932) 246 (1957) 1200 331 402 464 494 845 1570 1680 2260 3650
2021-01-17 20:45 3.64 978 5670 (1932) 246 (1957) 1200 331 402 464 494 845 1570 1680 2260 3650
2021-01-17 19:45 3.64 978 5670 (1932) 246 (1957) 1200 331 402 464 494 845 1570 1680 2260 3650
2021-01-17 18:45 3.64 978 5670 (1932) 246 (1957) 1200 331 402 464 494 845 1570 1680 2260 3650
2021-01-17 17:45 3.64 978 5670 (1932) 246 (1957) 1200 331 402 464 494 845 1570 1680 2260 3650
2021-01-17 16:45 3.65 985 5670 (1932) 246 (1957) 1200 331 402 464 494 845 1570 1680 2260 3650
2021-01-17 15:45 3.64 978 5670 (1932) 246 (1957) 1200 331 402 464 494 845 1570 1680 2260 3650
2021-01-17 14:45 3.64 978 5670 (1932) 246 (1957) 1200 331 402 464 494 845 1570 1680 2260 3650
2021-01-17 13:45 3.64 978 5670 (1932) 246 (1957) 1200 331 402 464 494 845 1570 1680 2260 3650
2021-01-17 12:45 3.65 985 5670 (1932) 246 (1957) 1200 331 402 464 494 845 1570 1680 2260 3650
2021-01-17 11:45 3.62 965 5670 (1932) 246 (1957) 1200 331 402 464 494 845 1570 1680 2260 3650
2021-01-17 10:45 3.65 985 5670 (1932) 246 (1957) 1200 331 402 464 494 845 1570 1680 2260 3650
2021-01-17 09:45 3.65 985 5670 (1932) 246 (1957) 1200 331 402 464 494 845 1570 1680 2260 3650
2021-01-17 08:45 3.66 992 5670 (1932) 246 (1957) 1200 331 402 464 494 845 1570 1680 2260 3650
2021-01-17 07:45 3.65 985 5670 (1932) 246 (1957) 1200 331 402 464 494 845 1570 1680 2260 3650
2021-01-17 06:45 3.66 992 5670 (1932) 246 (1957) 1200 331 402 464 494 845 1570 1680 2260 3650
2021-01-17 05:45 3.66 992 5670 (1932) 246 (1957) 1200 331 402 464 494 845 1570 1680 2260 3650
2021-01-17 04:45 3.66 992 5670 (1932) 246 (1957) 1200 331 402 464 494 845 1570 1680 2260 3650
2021-01-17 03:45 3.67 998 5670 (1932) 246 (1957) 1200 331 402 464 494 845 1570 1680 2260 3650
2021-01-17 02:45 3.67 998 5670 (1932) 246 (1957) 1200 331 402 464 494 845 1570 1680 2260 3650
2021-01-17 01:45 3.67 998 5670 (1932) 246 (1957) 1200 331 402 464 494 845 1570 1680 2260 3650
2021-01-17 00:45 3.67 998 5670 (1932) 246 (1957) 1200 331 402 464 494 845 1570 1680 2260 3650
2021-01-16 22:45 3.67 998 10800 (1937) 250 (1957) 1310 335 408 471 494 852 1590 1660 2450 4320
2021-01-16 21:45 3.67 998 10800 (1937) 250 (1957) 1310 335 408 471 494 852 1590 1660 2450 4320
2021-01-16 20:45 3.67 998 10800 (1937) 250 (1957) 1310 335 408 471 494 852 1590 1660 2450 4320
2021-01-16 19:45 3.67 998 10800 (1937) 250 (1957) 1310 335 408 471 494 852 1590 1660 2450 4320
2021-01-16 18:45 3.68 1010 10800 (1937) 250 (1957) 1310 335 408 471 494 852 1590 1660 2450 4320
2021-01-16 17:45 3.67 998 10800 (1937) 250 (1957) 1310 335 408 471 494 852 1590 1660 2450 4320
2021-01-16 16:45 3.68 1010 10800 (1937) 250 (1957) 1310 335 408 471 494 852 1590 1660 2450 4320
2021-01-16 15:45 3.64 978 10800 (1937) 250 (1957) 1310 335 408 471 494 852 1590 1660 2450 4320
2021-01-16 14:45 3.65 985 10800 (1937) 250 (1957) 1310 335 408 471 494 852 1590 1660 2450 4320
2021-01-16 13:45 3.64 978 10800 (1937) 250 (1957) 1310 335 408 471 494 852 1590 1660 2450 4320
2021-01-16 12:45 3.69 1010 10800 (1937) 250 (1957) 1310 335 408 471 494 852 1590 1660 2450 4320
2021-01-16 11:45 3.63 972 10800 (1937) 250 (1957) 1310 335 408 471 494 852 1590 1660 2450 4320
2021-01-16 10:45 3.62 965 10800 (1937) 250 (1957) 1310 335 408 471 494 852 1590 1660 2450 4320
2021-01-16 09:45 3.69 1010 10800 (1937) 250 (1957) 1310 335 408 471 494 852 1590 1660 2450 4320
2021-01-16 08:45 3.68 1010 10800 (1937) 250 (1957) 1310 335 408 471 494 852 1590 1660 2450 4320
2021-01-16 07:45 3.68 1010 10800 (1937) 250 (1957) 1310 335 408 471 494 852 1590 1660 2450 4320
2021-01-16 06:45 3.68 1010 10800 (1937) 250 (1957) 1310 335 408 471 494 852 1590 1660 2450 4320
2021-01-16 05:45 3.68 1010 10800 (1937) 250 (1957) 1310 335 408 471 494 852 1590 1660 2450 4320
2021-01-16 04:45 3.69 1010 10800 (1937) 250 (1957) 1310 335 408 471 494 852 1590 1660 2450 4320
2021-01-16 03:45 3.69 1010 10800 (1937) 250 (1957) 1310 335 408 471 494 852 1590 1660 2450 4320
2021-01-16 02:45 3.69 1010 10800 (1937) 250 (1957) 1310 335 408 471 494 852 1590 1660 2450 4320
2021-01-16 01:45 3.69 1010 10800 (1937) 250 (1957) 1310 335 408 471 494 852 1590 1660 2450 4320
2021-01-16 00:45 3.69 1010 10800 (1937) 250 (1957) 1310 335 408 471 494 852 1590 1660 2450 4320
2021-01-15 23:45 3.69 1010 14300 (1937) 254 (1957) 1430 335 390 464 498 859 1490 1760 2730 5450
2021-01-15 22:45 3.68 1010 14300 (1937) 254 (1957) 1430 335 390 464 498 859 1490 1760 2730 5450
2021-01-15 21:45 3.68 1010 14300 (1937) 254 (1957) 1430 335 390 464 498 859 1490 1760 2730 5450
2021-01-15 20:45 3.69 1010 14300 (1937) 254 (1957) 1430 335 390 464 498 859 1490 1760 2730 5450
2021-01-15 19:45 3.69 1010 14300 (1937) 254 (1957) 1430 335 390 464 498 859 1490 1760 2730 5450
2021-01-15 18:45 3.70 1020 14300 (1937) 254 (1957) 1430 335 390 464 498 859 1490 1760 2730 5450
2021-01-15 17:45 3.69 1010 14300 (1937) 254 (1957) 1430 335 390 464 498 859 1490 1760 2730 5450
2021-01-15 16:45 3.69 1010 14300 (1937) 254 (1957) 1430 335 390 464 498 859 1490 1760 2730 5450
2021-01-15 15:45 3.70 1020 14300 (1937) 254 (1957) 1430 335 390 464 498 859 1490 1760 2730 5450
2021-01-15 14:45 3.68 1010 14300 (1937) 254 (1957) 1430 335 390 464 498 859 1490 1760 2730 5450
2021-01-15 13:45 3.69 1010 14300 (1937) 254 (1957) 1430 335 390 464 498 859 1490 1760 2730 5450
2021-01-15 12:45 3.70 1020 14300 (1937) 254 (1957) 1430 335 390 464 498 859 1490 1760 2730 5450
2021-01-15 11:45 3.68 1010 14300 (1937) 254 (1957) 1430 335 390 464 498 859 1490 1760 2730 5450
2021-01-15 10:45 3.68 1010 14300 (1937) 254 (1957) 1430 335 390 464 498 859 1490 1760 2730 5450
2021-01-15 09:45 3.68 1010 14300 (1937) 254 (1957) 1430 335 390 464 498 859 1490 1760 2730 5450
2021-01-15 08:45 3.69 1010 14300 (1937) 254 (1957) 1430 335 390 464 498 859 1490 1760 2730 5450
2021-01-15 07:45 3.70 1020 14300 (1937) 254 (1957) 1430 335 390 464 498 859 1490 1760 2730 5450
2021-01-15 06:45 3.70 1020 14300 (1937) 254 (1957) 1430 335 390 464 498 859 1490 1760 2730 5450
2021-01-15 05:45 3.70 1020 14300 (1937) 254 (1957) 1430 335 390 464 498 859 1490 1760 2730 5450
2021-01-15 04:45 3.70 1020 14300 (1937) 254 (1957) 1430 335 390 464 498 859 1490 1760 2730 5450
2021-01-15 03:45 3.70 1020 14300 (1937) 254 (1957) 1430 335 390 464 498 859 1490 1760 2730 5450
2021-01-15 02:45 3.70 1020 14300 (1937) 254 (1957) 1430 335 390 464 498 859 1490 1760 2730 5450
2021-01-15 01:45 3.71 1030 14300 (1937) 254 (1957) 1430 335 390 464 498 859 1490 1760 2730 5450
2021-01-15 00:45 3.70 1020 14300 (1937) 254 (1957) 1430 335 390 464 498 859 1490 1760 2730 5450
2021-01-14 23:45 3.70 1020 8850 (1930) 254 (1957) 1430 336 368 480 509 863 1500 1870 3120 5980
2021-01-14 22:45 3.71 1030 8850 (1930) 254 (1957) 1430 336 368 480 509 863 1500 1870 3120 5980
2021-01-14 21:45 3.70 1020 8850 (1930) 254 (1957) 1430 336 368 480 509 863 1500 1870 3120 5980
2021-01-14 20:45 3.70 1020 8850 (1930) 254 (1957) 1430 336 368 480 509 863 1500 1870 3120 5980
2021-01-14 19:45 3.70 1020 8850 (1930) 254 (1957) 1430 336 368 480 509 863 1500 1870 3120 5980
2021-01-14 18:45 3.71 1030 8850 (1930) 254 (1957) 1430 336 368 480 509 863 1500 1870 3120 5980
2021-01-14 17:45 3.70 1020 8850 (1930) 254 (1957) 1430 336 368 480 509 863 1500 1870 3120 5980
2021-01-14 16:45 3.66 992 8850 (1930) 254 (1957) 1430 336 368 480 509 863 1500 1870 3120 5980
2021-01-14 15:45 3.66 992 8850 (1930) 254 (1957) 1430 336 368 480 509 863 1500 1870 3120 5980
2021-01-14 14:45 3.70 1020 8850 (1930) 254 (1957) 1430 336 368 480 509 863 1500 1870 3120 5980
2021-01-14 13:45 3.70 1020 8850 (1930) 254 (1957) 1430 336 368 480 509 863 1500 1870 3120 5980
2021-01-14 12:45 3.66 992 8850 (1930) 254 (1957) 1430 336 368 480 509 863 1500 1870 3120 5980
2021-01-14 11:45 3.70 1020 8850 (1930) 254 (1957) 1430 336 368 480 509 863 1500 1870 3120 5980
2021-01-14 10:45 3.70 1020 8850 (1930) 254 (1957) 1430 336 368 480 509 863 1500 1870 3120 5980
2021-01-14 09:45 3.70 1020 8850 (1930) 254 (1957) 1430 336 368 480 509 863 1500 1870 3120 5980
2021-01-14 08:45 3.68 1010 8850 (1930) 254 (1957) 1430 336 368 480 509 863 1500 1870 3120 5980
2021-01-14 07:45 3.71 1030 8850 (1930) 254 (1957) 1430 336 368 480 509 863 1500 1870 3120 5980
2021-01-14 06:45 3.71 1030 8850 (1930) 254 (1957) 1430 336 368 480 509 863 1500 1870 3120 5980
2021-01-14 05:45 3.71 1030 8850 (1930) 254 (1957) 1430 336 368 480 509 863 1500 1870 3120 5980
2021-01-14 04:45 3.71 1030 8850 (1930) 254 (1957) 1430 336 368 480 509 863 1500 1870 3120 5980
2021-01-14 03:45 3.71 1030 8850 (1930) 254 (1957) 1430 336 368 480 509 863 1500 1870 3120 5980
2021-01-14 02:45 3.71 1030 8850 (1930) 254 (1957) 1430 336 368 480 509 863 1500 1870 3120 5980
2021-01-14 01:45 3.71 1030 8850 (1930) 254 (1957) 1430 336 368 480 509 863 1500 1870 3120 5980
2021-01-14 00:45 3.71 1030 8850 (1930) 254 (1957) 1430 336 368 480 509 863 1500 1870 3120 5980
2021-01-13 23:45 3.71 1030 7540 (1930) 254 (1957) 1260 336 366 487 508 874 1440 1830 2260 4190
2021-01-13 22:45 3.71 1030 7540 (1930) 254 (1957) 1260 336 366 487 508 874 1440 1830 2260 4190
2021-01-13 21:45 3.71 1030 7540 (1930) 254 (1957) 1260 336 366 487 508 874 1440 1830 2260 4190
2021-01-13 20:45 3.71 1030 7540 (1930) 254 (1957) 1260 336 366 487 508 874 1440 1830 2260 4190
2021-01-13 19:45 3.71 1030 7540 (1930) 254 (1957) 1260 336 366 487 508 874 1440 1830 2260 4190
2021-01-13 18:45 3.70 1020 7540 (1930) 254 (1957) 1260 336 366 487 508 874 1440 1830 2260 4190
2021-01-13 17:45 3.71 1030 7540 (1930) 254 (1957) 1260 336 366 487 508 874 1440 1830 2260 4190
2021-01-13 16:45 3.71 1030 7540 (1930) 254 (1957) 1260 336 366 487 508 874 1440 1830 2260 4190
2021-01-13 15:45 3.71 1030 7540 (1930) 254 (1957) 1260 336 366 487 508 874 1440 1830 2260 4190
2021-01-13 14:45 3.72 1030 7540 (1930) 254 (1957) 1260 336 366 487 508 874 1440 1830 2260 4190
2021-01-13 13:45 3.71 1030 7540 (1930) 254 (1957) 1260 336 366 487 508 874 1440 1830 2260 4190
2021-01-13 12:45 3.72 1030 7540 (1930) 254 (1957) 1260 336 366 487 508 874 1440 1830 2260 4190
2021-01-13 11:45 3.71 1030 7540 (1930) 254 (1957) 1260 336 366 487 508 874 1440 1830 2260 4190
2021-01-13 10:45 3.70 1020 7540 (1930) 254 (1957) 1260 336 366 487 508 874 1440 1830 2260 4190
2021-01-13 09:45 3.72 1030 7540 (1930) 254 (1957) 1260 336 366 487 508 874 1440 1830 2260 4190
2021-01-13 08:45 3.71 1030 7540 (1930) 254 (1957) 1260 336 366 487 508 874 1440 1830 2260 4190
2021-01-13 07:45 3.72 1030 7540 (1930) 254 (1957) 1260 336 366 487 508 874 1440 1830 2260 4190
2021-01-13 06:45 3.72 1030 7540 (1930) 254 (1957) 1260 336 366 487 508 874 1440 1830 2260 4190
2021-01-13 05:45 3.72 1030 7540 (1930) 254 (1957) 1260 336 366 487 508 874 1440 1830 2260 4190
2021-01-13 04:45 3.73 1040 7540 (1930) 254 (1957) 1260 336 366 487 508 874 1440 1830 2260 4190
2021-01-13 03:45 3.73 1040 7540 (1930) 254 (1957) 1260 336 366 487 508 874 1440 1830 2260 4190
2021-01-13 02:45 3.73 1040 7540 (1930) 254 (1957) 1260 336 366 487 508 874 1440 1830 2260 4190
2021-01-13 01:45 3.72 1030 7540 (1930) 254 (1957) 1260 336 366 487 508 874 1440 1830 2260 4190
2021-01-13 00:45 3.73 1040 7540 (1930) 254 (1957) 1260 336 366 487 508 874 1440 1830 2260 4190
2021-01-12 23:45 3.73 1040 9150 (2020) 258 (1956) 1160 336 370 499 520 872 1450 1580 2320 3120
2021-01-12 22:45 3.73 1040 9150 (2020) 258 (1956) 1160 336 370 499 520 872 1450 1580 2320 3120
2021-01-12 21:45 3.73 1040 9150 (2020) 258 (1956) 1160 336 370 499 520 872 1450 1580 2320 3120
2021-01-12 20:45 3.73 1040 9150 (2020) 258 (1956) 1160 336 370 499 520 872 1450 1580 2320 3120
2021-01-12 19:45 3.72 1030 9150 (2020) 258 (1956) 1160 336 370 499 520 872 1450 1580 2320 3120
2021-01-12 18:45 3.73 1040 9150 (2020) 258 (1956) 1160 336 370 499 520 872 1450 1580 2320 3120
2021-01-12 17:45 3.73 1040 9150 (2020) 258 (1956) 1160 336 370 499 520 872 1450 1580 2320 3120
2021-01-12 16:45 3.73 1040 9150 (2020) 258 (1956) 1160 336 370 499 520 872 1450 1580 2320 3120
2021-01-12 15:45 3.74 1050 9150 (2020) 258 (1956) 1160 336 370 499 520 872 1450 1580 2320 3120
2021-01-12 14:45 3.73 1040 9150 (2020) 258 (1956) 1160 336 370 499 520 872 1450 1580 2320 3120
2021-01-12 13:45 3.73 1040 9150 (2020) 258 (1956) 1160 336 370 499 520 872 1450 1580 2320 3120
2021-01-12 12:45 3.74 1050 9150 (2020) 258 (1956) 1160 336 370 499 520 872 1450 1580 2320 3120
2021-01-12 11:45 3.73 1040 9150 (2020) 258 (1956) 1160 336 370 499 520 872 1450 1580 2320 3120
2021-01-12 10:45 3.73 1040 9150 (2020) 258 (1956) 1160 336 370 499 520 872 1450 1580 2320 3120
2021-01-12 09:45 3.73 1040 9150 (2020) 258 (1956) 1160 336 370 499 520 872 1450 1580 2320 3120
2021-01-12 08:45 3.74 1050 9150 (2020) 258 (1956) 1160 336 370 499 520 872 1450 1580 2320 3120
2021-01-12 07:45 3.74 1050 9150 (2020) 258 (1956) 1160 336 370 499 520 872 1450 1580 2320 3120
2021-01-12 06:45 3.74 1050 9150 (2020) 258 (1956) 1160 336 370 499 520 872 1450 1580 2320 3120
2021-01-12 05:45 3.75 1050 9150 (2020) 258 (1956) 1160 336 370 499 520 872 1450 1580 2320 3120
2021-01-12 04:45 3.75 1050 9150 (2020) 258 (1956) 1160 336 370 499 520 872 1450 1580 2320 3120
2021-01-12 03:45 3.75 1050 9150 (2020) 258 (1956) 1160 336 370 499 520 872 1450 1580 2320 3120
2021-01-12 02:45 3.75 1050 9150 (2020) 258 (1956) 1160 336 370 499 520 872 1450 1580 2320 3120
2021-01-12 01:45 3.75 1050 9150 (2020) 258 (1956) 1160 336 370 499 520 872 1450 1580 2320 3120
2021-01-12 00:45 3.75 1050 9150 (2020) 258 (1956) 1160 336 370 499 520 872 1450 1580 2320 3120
2021-01-11 23:45 3.75 1050 10200 (2020) 258 (1956) 1210 335 366 493 515 900 1480 1650 2330 3400
2021-01-11 22:45 3.75 1050 10200 (2020) 258 (1956) 1210 335 366 493 515 900 1480 1650 2330 3400
2021-01-11 21:45 3.75 1050 10200 (2020) 258 (1956) 1210 335 366 493 515 900 1480 1650 2330 3400
2021-01-11 20:45 3.75 1050 10200 (2020) 258 (1956) 1210 335 366 493 515 900 1480 1650 2330 3400
2021-01-11 19:45 3.75 1050 10200 (2020) 258 (1956) 1210 335 366 493 515 900 1480 1650 2330 3400
2021-01-11 18:45 3.76 1060 10200 (2020) 258 (1956) 1210 335 366 493 515 900 1480 1650 2330 3400
2021-01-11 17:45 3.76 1060 10200 (2020) 258 (1956) 1210 335 366 493 515 900 1480 1650 2330 3400
2021-01-11 16:45 3.76 1060 10200 (2020) 258 (1956) 1210 335 366 493 515 900 1480 1650 2330 3400
2021-01-11 15:45 3.76 1060 10200 (2020) 258 (1956) 1210 335 366 493 515 900 1480 1650 2330 3400
2021-01-11 14:45 3.76 1060 10200 (2020) 258 (1956) 1210 335 366 493 515 900 1480 1650 2330 3400
2021-01-11 13:45 3.76 1060 10200 (2020) 258 (1956) 1210 335 366 493 515 900 1480 1650 2330 3400
2021-01-11 12:45 3.77 1070 10200 (2020) 258 (1956) 1210 335 366 493 515 900 1480 1650 2330 3400
2021-01-11 11:45 3.77 1070 10200 (2020) 258 (1956) 1210 335 366 493 515 900 1480 1650 2330 3400
2021-01-11 10:45 3.77 1070 10200 (2020) 258 (1956) 1210 335 366 493 515 900 1480 1650 2330 3400
2021-01-11 09:45 3.77 1070 10200 (2020) 258 (1956) 1210 335 366 493 515 900 1480 1650 2330 3400
2021-01-11 08:45 3.77 1070 10200 (2020) 258 (1956) 1210 335 366 493 515 900 1480 1650 2330 3400
2021-01-11 07:45 3.77 1070 10200 (2020) 258 (1956) 1210 335 366 493 515 900 1480 1650 2330 3400
2021-01-11 06:45 3.78 1070 10200 (2020) 258 (1956) 1210 335 366 493 515 900 1480 1650 2330 3400
2021-01-11 05:45 3.78 1070 10200 (2020) 258 (1956) 1210 335 366 493 515 900 1480 1650 2330 3400
2021-01-11 04:45 3.78 1070 10200 (2020) 258 (1956) 1210 335 366 493 515 900 1480 1650 2330 3400
2021-01-11 03:45 3.78 1070 10200 (2020) 258 (1956) 1210 335 366 493 515 900 1480 1650 2330 3400
2021-01-11 02:45 3.78 1070 10200 (2020) 258 (1956) 1210 335 366 493 515 900 1480 1650 2330 3400
2021-01-11 01:45 3.79 1080 10200 (2020) 258 (1956) 1210 335 366 493 515 900 1480 1650 2330 3400
2021-01-11 00:45 3.78 1070 10200 (2020) 258 (1956) 1210 335 366 493 515 900 1480 1650 2330 3400
2021-01-10 23:45 3.78 1070 5790 (1950) 258 (1956) 1130 338 377 507 520 921 1470 1570 2400 2820
2021-01-10 22:45 3.78 1070 5790 (1950) 258 (1956) 1130 338 377 507 520 921 1470 1570 2400 2820
2021-01-10 21:45 3.79 1080 5790 (1950) 258 (1956) 1130 338 377 507 520 921 1470 1570 2400 2820
2021-01-10 20:45 3.79 1080 5790 (1950) 258 (1956) 1130 338 377 507 520 921 1470 1570 2400 2820
2021-01-10 19:45 3.79 1080 5790 (1950) 258 (1956) 1130 338 377 507 520 921 1470 1570 2400 2820
2021-01-10 18:45 3.79 1080 5790 (1950) 258 (1956) 1130 338 377 507 520 921 1470 1570 2400 2820
2021-01-10 17:45 3.80 1090 5790 (1950) 258 (1956) 1130 338 377 507 520 921 1470 1570 2400 2820
2021-01-10 16:45 3.80 1090 5790 (1950) 258 (1956) 1130 338 377 507 520 921 1470 1570 2400 2820
2021-01-10 15:45 3.80 1090 5790 (1950) 258 (1956) 1130 338 377 507 520 921 1470 1570 2400 2820
2021-01-10 14:45 3.80 1090 5790 (1950) 258 (1956) 1130 338 377 507 520 921 1470 1570 2400 2820
2021-01-10 13:45 3.81 1090 5790 (1950) 258 (1956) 1130 338 377 507 520 921 1470 1570 2400 2820
2021-01-10 12:45 3.80 1090 5790 (1950) 258 (1956) 1130 338 377 507 520 921 1470 1570 2400 2820
2021-01-10 11:45 3.81 1090 5790 (1950) 258 (1956) 1130 338 377 507 520 921 1470 1570 2400 2820
2021-01-10 10:45 3.81 1090 5790 (1950) 258 (1956) 1130 338 377 507 520 921 1470 1570 2400 2820
2021-01-10 09:45 3.81 1090 5790 (1950) 258 (1956) 1130 338 377 507 520 921 1470 1570 2400 2820
2021-01-10 08:45 3.81 1090 5790 (1950) 258 (1956) 1130 338 377 507 520 921 1470 1570 2400 2820
2021-01-10 07:45 3.81 1090 5790 (1950) 258 (1956) 1130 338 377 507 520 921 1470 1570 2400 2820
2021-01-10 06:45 3.81 1090 5790 (1950) 258 (1956) 1130 338 377 507 520 921 1470 1570 2400 2820
2021-01-10 05:45 3.81 1090 5790 (1950) 258 (1956) 1130 338 377 507 520 921 1470 1570 2400 2820
2021-01-10 04:45 3.81 1090 5790 (1950) 258 (1956) 1130 338 377 507 520 921 1470 1570 2400 2820
2021-01-10 03:45 3.82 1100 5790 (1950) 258 (1956) 1130 338 377 507 520 921 1470 1570 2400 2820
2021-01-10 02:45 3.82 1100 5790 (1950) 258 (1956) 1130 338 377 507 520 921 1470 1570 2400 2820
2021-01-10 01:45 3.82 1100 5790 (1950) 258 (1956) 1130 338 377 507 520 921 1470 1570 2400 2820
2021-01-10 00:45 3.82 1100 5790 (1950) 258 (1956) 1130 338 377 507 520 921 1470 1570 2400 2820
2021-01-09 23:45 3.83 1110 7410 (1946) 258 (1956) 1140 340 362 509 515 983 1300 1660 2370 2750
2021-01-09 22:45 3.83 1110 7410 (1946) 258 (1956) 1140 340 362 509 515 983 1300 1660 2370 2750
2021-01-09 20:45 3.83 1110 7410 (1946) 258 (1956) 1140 340 362 509 515 983 1300 1660 2370 2750
2021-01-09 19:45 3.84 1110 7410 (1946) 258 (1956) 1140 340 362 509 515 983 1300 1660 2370 2750
2021-01-09 18:45 3.84 1110 7410 (1946) 258 (1956) 1140 340 362 509 515 983 1300 1660 2370 2750
2021-01-09 17:45 3.84 1110 7410 (1946) 258 (1956) 1140 340 362 509 515 983 1300 1660 2370 2750
2021-01-09 16:45 3.84 1110 7410 (1946) 258 (1956) 1140 340 362 509 515 983 1300 1660 2370 2750
2021-01-09 15:45 3.85 1120 7410 (1946) 258 (1956) 1140 340 362 509 515 983 1300 1660 2370 2750
2021-01-09 14:45 3.85 1120 7410 (1946) 258 (1956) 1140 340 362 509 515 983 1300 1660 2370 2750
2021-01-09 13:45 3.85 1120 7410 (1946) 258 (1956) 1140 340 362 509 515 983 1300 1660 2370 2750
2021-01-09 12:45 3.85 1120 7410 (1946) 258 (1956) 1140 340 362 509 515 983 1300 1660 2370 2750
2021-01-09 11:45 3.85 1120 7410 (1946) 258 (1956) 1140 340 362 509 515 983 1300 1660 2370 2750
2021-01-09 10:45 3.86 1130 7410 (1946) 258 (1956) 1140 340 362 509 515 983 1300 1660 2370 2750
2021-01-09 09:45 3.86 1130 7410 (1946) 258 (1956) 1140 340 362 509 515 983 1300 1660 2370 2750
2021-01-09 08:45 3.86 1130 7410 (1946) 258 (1956) 1140 340 362 509 515 983 1300 1660 2370 2750
2021-01-09 07:45 3.86 1130 7410 (1946) 258 (1956) 1140 340 362 509 515 983 1300 1660 2370 2750
2021-01-09 06:45 3.86 1130 7410 (1946) 258 (1956) 1140 340 362 509 515 983 1300 1660 2370 2750
2021-01-09 05:45 3.87 1130 7410 (1946) 258 (1956) 1140 340 362 509 515 983 1300 1660 2370 2750
2021-01-09 04:45 3.87 1130 7410 (1946) 258 (1956) 1140 340 362 509 515 983 1300 1660 2370 2750
2021-01-09 03:45 3.88 1140 7410 (1946) 258 (1956) 1140 340 362 509 515 983 1300 1660 2370 2750
2021-01-09 02:45 3.88 1140 7410 (1946) 258 (1956) 1140 340 362 509 515 983 1300 1660 2370 2750
2021-01-09 01:45 3.88 1140 7410 (1946) 258 (1956) 1140 340 362 509 515 983 1300 1660 2370 2750
2021-01-09 00:45 3.88 1140 7410 (1946) 258 (1956) 1140 340 362 509 515 983 1300 1660 2370 2750
2021-01-08 23:45 3.88 1140 3690 (1950) 262 (1956) 1100 332 353 508 525 983 1400 1720 2220 2850
2021-01-08 22:45 3.89 1150 3690 (1950) 262 (1956) 1100 332 353 508 525 983 1400 1720 2220 2850
2021-01-08 21:45 3.89 1150 3690 (1950) 262 (1956) 1100 332 353 508 525 983 1400 1720 2220 2850
2021-01-08 20:45 3.89 1150 3690 (1950) 262 (1956) 1100 332 353 508 525 983 1400 1720 2220 2850
2021-01-08 19:45 3.89 1150 3690 (1950) 262 (1956) 1100 332 353 508 525 983 1400 1720 2220 2850
2021-01-08 18:45 3.89 1150 3690 (1950) 262 (1956) 1100 332 353 508 525 983 1400 1720 2220 2850
2021-01-08 17:45 3.90 1160 3690 (1950) 262 (1956) 1100 332 353 508 525 983 1400 1720 2220 2850
2021-01-08 16:45 3.91 1160 3690 (1950) 262 (1956) 1100 332 353 508 525 983 1400 1720 2220 2850
2021-01-08 15:45 3.91 1160 3690 (1950) 262 (1956) 1100 332 353 508 525 983 1400 1720 2220 2850
2021-01-08 14:45 3.91 1160 3690 (1950) 262 (1956) 1100 332 353 508 525 983 1400 1720 2220 2850
2021-01-08 13:45 3.90 1160 3690 (1950) 262 (1956) 1100 332 353 508 525 983 1400 1720 2220 2850
2021-01-08 12:45 3.91 1160 3690 (1950) 262 (1956) 1100 332 353 508 525 983 1400 1720 2220 2850
2021-01-08 11:45 3.91 1160 3690 (1950) 262 (1956) 1100 332 353 508 525 983 1400 1720 2220 2850
2021-01-08 10:45 3.91 1160 3690 (1950) 262 (1956) 1100 332 353 508 525 983 1400 1720 2220 2850
2021-01-08 09:45 3.91 1160 3690 (1950) 262 (1956) 1100 332 353 508 525 983 1400 1720 2220 2850
2021-01-08 08:45 3.92 1170 3690 (1950) 262 (1956) 1100 332 353 508 525 983 1400 1720 2220 2850
2021-01-08 07:45 3.92 1170 3690 (1950) 262 (1956) 1100 332 353 508 525 983 1400 1720 2220 2850
2021-01-08 06:45 3.92 1170 3690 (1950) 262 (1956) 1100 332 353 508 525 983 1400 1720 2220 2850
2021-01-08 05:45 3.93 1180 3690 (1950) 262 (1956) 1100 332 353 508 525 983 1400 1720 2220 2850
2021-01-08 04:45 3.93 1180 3690 (1950) 262 (1956) 1100 332 353 508 525 983 1400 1720 2220 2850
2021-01-08 03:45 3.94 1180 3690 (1950) 262 (1956) 1100 332 353 508 525 983 1400 1720 2220 2850
2021-01-08 02:45 3.94 1180 3690 (1950) 262 (1956) 1100 332 353 508 525 983 1400 1720 2220 2850
2021-01-08 01:45 3.94 1180 3690 (1950) 262 (1956) 1100 332 353 508 525 983 1400 1720 2220 2850
2021-01-08 00:45 3.94 1180 3690 (1950) 262 (1956) 1100 332 353 508 525 983 1400 1720 2220 2850
2021-01-07 23:45 3.95 1190 4800 (1930) 262 (1956) 1190 331 356 501 520 917 1430 1710 2460 3270
2021-01-07 22:45 3.95 1190 4800 (1930) 262 (1956) 1190 331 356 501 520 917 1430 1710 2460 3270
2021-01-07 21:45 3.95 1190 4800 (1930) 262 (1956) 1190 331 356 501 520 917 1430 1710 2460 3270
2021-01-07 20:45 3.95 1190 4800 (1930) 262 (1956) 1190 331 356 501 520 917 1430 1710 2460 3270
2021-01-07 19:45 3.95 1190 4800 (1930) 262 (1956) 1190 331 356 501 520 917 1430 1710 2460 3270
2021-01-07 18:45 3.95 1190 4800 (1930) 262 (1956) 1190 331 356 501 520 917 1430 1710 2460 3270
2021-01-07 17:45 3.95 1190 4800 (1930) 262 (1956) 1190 331 356 501 520 917 1430 1710 2460 3270
2021-01-07 16:45 3.96 1200 4800 (1930) 262 (1956) 1190 331 356 501 520 917 1430 1710 2460 3270
2021-01-07 15:45 3.96 1200 4800 (1930) 262 (1956) 1190 331 356 501 520 917 1430 1710 2460 3270
2021-01-07 14:45 3.96 1200 4800 (1930) 262 (1956) 1190 331 356 501 520 917 1430 1710 2460 3270
2021-01-07 13:45 3.96 1200 4800 (1930) 262 (1956) 1190 331 356 501 520 917 1430 1710 2460 3270
2021-01-07 12:45 3.96 1200 4800 (1930) 262 (1956) 1190 331 356 501 520 917 1430 1710 2460 3270
2021-01-07 11:45 3.96 1200 4800 (1930) 262 (1956) 1190 331 356 501 520 917 1430 1710 2460 3270
2021-01-07 10:45 3.96 1200 4800 (1930) 262 (1956) 1190 331 356 501 520 917 1430 1710 2460 3270
2021-01-07 09:45 3.97 1200 4800 (1930) 262 (1956) 1190 331 356 501 520 917 1430 1710 2460 3270
2021-01-07 08:45 3.96 1200 4800 (1930) 262 (1956) 1190 331 356 501 520 917 1430 1710 2460 3270
2021-01-07 07:45 3.97 1200 4800 (1930) 262 (1956) 1190 331 356 501 520 917 1430 1710 2460 3270
2021-01-07 06:45 3.97 1200 4800 (1930) 262 (1956) 1190 331 356 501 520 917 1430 1710 2460 3270
2021-01-07 05:45 3.98 1210 4800 (1930) 262 (1956) 1190 331 356 501 520 917 1430 1710 2460 3270
2021-01-07 04:45 3.97 1200 4800 (1930) 262 (1956) 1190 331 356 501 520 917 1430 1710 2460 3270
2021-01-07 03:45 3.98 1210 4800 (1930) 262 (1956) 1190 331 356 501 520 917 1430 1710 2460 3270
2021-01-07 02:45 3.97 1200 4800 (1930) 262 (1956) 1190 331 356 501 520 917 1430 1710 2460 3270
2021-01-07 01:45 3.98 1210 4800 (1930) 262 (1956) 1190 331 356 501 520 917 1430 1710 2460 3270
2021-01-07 00:45 3.98 1210 4800 (1930) 262 (1956) 1190 331 356 501 520 917 1430 1710 2460 3270
2021-01-06 23:45 3.98 1210 10700 (1950) 262 (1956) 1310 335 359 500 542 926 1380 1720 2610 3390
2021-01-06 22:45 3.99 1220 10700 (1950) 262 (1956) 1310 335 359 500 542 926 1380 1720 2610 3390
2021-01-06 21:45 3.99 1220 10700 (1950) 262 (1956) 1310 335 359 500 542 926 1380 1720 2610 3390
2021-01-06 20:45 3.99 1220 10700 (1950) 262 (1956) 1310 335 359 500 542 926 1380 1720 2610 3390
2021-01-06 19:45 3.99 1220 10700 (1950) 262 (1956) 1310 335 359 500 542 926 1380 1720 2610 3390
2021-01-06 18:45 3.99 1220 10700 (1950) 262 (1956) 1310 335 359 500 542 926 1380 1720 2610 3390
2021-01-06 17:45 4.00 1230 10700 (1950) 262 (1956) 1310 335 359 500 542 926 1380 1720 2610 3390
2021-01-06 16:45 4.00 1230 10700 (1950) 262 (1956) 1310 335 359 500 542 926 1380 1720 2610 3390
2021-01-06 15:45 4.00 1230 10700 (1950) 262 (1956) 1310 335 359 500 542 926 1380 1720 2610 3390
2021-01-06 14:45 4.01 1230 10700 (1950) 262 (1956) 1310 335 359 500 542 926 1380 1720 2610 3390
2021-01-06 13:45 4.02 1240 10700 (1950) 262 (1956) 1310 335 359 500 542 926 1380 1720 2610 3390
2021-01-06 12:45 3.98 1210 10700 (1950) 262 (1956) 1310 335 359 500 542 926 1380 1720 2610 3390
2021-01-06 11:45 4.00 1230 10700 (1950) 262 (1956) 1310 335 359 500 542 926 1380 1720 2610 3390
2021-01-06 10:45 4.02 1240 10700 (1950) 262 (1956) 1310 335 359 500 542 926 1380 1720 2610 3390
2021-01-06 09:45 4.02 1240 10700 (1950) 262 (1956) 1310 335 359 500 542 926 1380 1720 2610 3390
2021-01-06 08:45 4.02 1240 10700 (1950) 262 (1956) 1310 335 359 500 542 926 1380 1720 2610 3390
2021-01-06 07:45 4.03 1250 10700 (1950) 262 (1956) 1310 335 359 500 542 926 1380 1720 2610 3390
2021-01-06 06:45 4.04 1250 10700 (1950) 262 (1956) 1310 335 359 500 542 926 1380 1720 2610 3390
2021-01-06 05:45 4.05 1260 10700 (1950) 262 (1956) 1310 335 359 500 542 926 1380 1720 2610 3390
2021-01-06 04:45 4.05 1260 10700 (1950) 262 (1956) 1310 335 359 500 542 926 1380 1720 2610 3390
2021-01-06 03:45 4.05 1260 10700 (1950) 262 (1956) 1310 335 359 500 542 926 1380 1720 2610 3390
2021-01-06 02:45 4.05 1260 10700 (1950) 262 (1956) 1310 335 359 500 542 926 1380 1720 2610 3390
2021-01-06 01:45 4.07 1280 10700 (1950) 262 (1956) 1310 335 359 500 542 926 1380 1720 2610 3390
2021-01-06 00:45 4.07 1280 10700 (1950) 262 (1956) 1310 335 359 500 542 926 1380 1720 2610 3390
2021-01-05 23:45 4.08 1280 18100 (1950) 266 (1956) 1540 336 359 504 553 970 1470 1810 2700 4160
2021-01-05 22:45 4.07 1280 18100 (1950) 266 (1956) 1540 336 359 504 553 970 1470 1810 2700 4160
2021-01-05 21:45 4.07 1280 18100 (1950) 266 (1956) 1540 336 359 504 553 970 1470 1810 2700 4160
2021-01-05 20:45 4.08 1280 18100 (1950) 266 (1956) 1540 336 359 504 553 970 1470 1810 2700 4160
2021-01-05 19:45 4.08 1280 18100 (1950) 266 (1956) 1540 336 359 504 553 970 1470 1810 2700 4160
2021-01-05 18:45 4.08 1280 18100 (1950) 266 (1956) 1540 336 359 504 553 970 1470 1810 2700 4160
2021-01-05 17:45 4.09 1290 18100 (1950) 266 (1956) 1540 336 359 504 553 970 1470 1810 2700 4160
2021-01-05 16:45 4.09 1290 18100 (1950) 266 (1956) 1540 336 359 504 553 970 1470 1810 2700 4160
2021-01-05 15:45 4.10 1300 18100 (1950) 266 (1956) 1540 336 359 504 553 970 1470 1810 2700 4160
2021-01-05 14:45 4.07 1280 18100 (1950) 266 (1956) 1540 336 359 504 553 970 1470 1810 2700 4160
2021-01-05 13:45 4.10 1300 18100 (1950) 266 (1956) 1540 336 359 504 553 970 1470 1810 2700 4160
2021-01-05 12:45 4.11 1300 18100 (1950) 266 (1956) 1540 336 359 504 553 970 1470 1810 2700 4160
2021-01-05 11:45 4.11 1300 18100 (1950) 266 (1956) 1540 336 359 504 553 970 1470 1810 2700 4160
2021-01-05 10:45 4.12 1310 18100 (1950) 266 (1956) 1540 336 359 504 553 970 1470 1810 2700 4160
2021-01-05 09:45 4.11 1300 18100 (1950) 266 (1956) 1540 336 359 504 553 970 1470 1810 2700 4160
2021-01-05 08:45 4.11 1300 18100 (1950) 266 (1956) 1540 336 359 504 553 970 1470 1810 2700 4160
2021-01-05 07:45 4.14 1330 18100 (1950) 266 (1956) 1540 336 359 504 553 970 1470 1810 2700 4160
2021-01-05 06:45 4.14 1330 18100 (1950) 266 (1956) 1540 336 359 504 553 970 1470 1810 2700 4160
2021-01-05 05:45 4.14 1330 18100 (1950) 266 (1956) 1540 336 359 504 553 970 1470 1810 2700 4160
2021-01-05 04:45 4.14 1330 18100 (1950) 266 (1956) 1540 336 359 504 553 970 1470 1810 2700 4160
2021-01-05 03:45 4.16 1340 18100 (1950) 266 (1956) 1540 336 359 504 553 970 1470 1810 2700 4160
2021-01-05 02:45 4.16 1340 18100 (1950) 266 (1956) 1540 336 359 504 553 970 1470 1810 2700 4160
2021-01-05 01:45 4.16 1340 18100 (1950) 266 (1956) 1540 336 359 504 553 970 1470 1810 2700 4160
2021-01-05 00:45 4.17 1350 18100 (1950) 266 (1956) 1540 336 359 504 553 970 1470 1810 2700 4160
2021-01-04 23:45 4.17 1350 13800 (1950) 266 (1956) 1440 341 367 512 541 1020 1620 1850 2580 5520
2021-01-04 22:45 4.17 1350 13800 (1950) 266 (1956) 1440 341 367 512 541 1020 1620 1850 2580 5520
2021-01-04 21:45 4.18 1360 13800 (1950) 266 (1956) 1440 341 367 512 541 1020 1620 1850 2580 5520
2021-01-04 20:45 4.18 1360 13800 (1950) 266 (1956) 1440 341 367 512 541 1020 1620 1850 2580 5520
2021-01-04 19:45 4.19 1360 13800 (1950) 266 (1956) 1440 341 367 512 541 1020 1620 1850 2580 5520
2021-01-04 18:45 4.18 1360 13800 (1950) 266 (1956) 1440 341 367 512 541 1020 1620 1850 2580 5520
2021-01-04 17:45 4.19 1360 13800 (1950) 266 (1956) 1440 341 367 512 541 1020 1620 1850 2580 5520
2021-01-04 16:45 4.20 1370 13800 (1950) 266 (1956) 1440 341 367 512 541 1020 1620 1850 2580 5520
2021-01-04 15:45 4.20 1370 13800 (1950) 266 (1956) 1440 341 367 512 541 1020 1620 1850 2580 5520
2021-01-04 14:45 4.19 1360 13800 (1950) 266 (1956) 1440 341 367 512 541 1020 1620 1850 2580 5520
2021-01-04 13:45 4.19 1360 13800 (1950) 266 (1956) 1440 341 367 512 541 1020 1620 1850 2580 5520
2021-01-04 12:45 4.22 1380 13800 (1950) 266 (1956) 1440 341 367 512 541 1020 1620 1850 2580 5520
2021-01-04 11:45 4.22 1380 13800 (1950) 266 (1956) 1440 341 367 512 541 1020 1620 1850 2580 5520
2021-01-04 10:45 4.23 1390 13800 (1950) 266 (1956) 1440 341 367 512 541 1020 1620 1850 2580 5520
2021-01-04 09:45 4.23 1390 13800 (1950) 266 (1956) 1440 341 367 512 541 1020 1620 1850 2580 5520
2021-01-04 08:45 4.24 1400 13800 (1950) 266 (1956) 1440 341 367 512 541 1020 1620 1850 2580 5520
2021-01-04 07:45 4.24 1400 13800 (1950) 266 (1956) 1440 341 367 512 541 1020 1620 1850 2580 5520
2021-01-04 06:45 4.24 1400 13800 (1950) 266 (1956) 1440 341 367 512 541 1020 1620 1850 2580 5520
2021-01-04 05:45 4.25 1410 13800 (1950) 266 (1956) 1440 341 367 512 541 1020 1620 1850 2580 5520
2021-01-04 04:45 4.25 1410 13800 (1950) 266 (1956) 1440 341 367 512 541 1020 1620 1850 2580 5520
2021-01-04 03:45 4.26 1410 13800 (1950) 266 (1956) 1440 341 367 512 541 1020 1620 1850 2580 5520
2021-01-04 02:45 4.26 1410 13800 (1950) 266 (1956) 1440 341 367 512 541 1020 1620 1850 2580 5520
2021-01-04 01:45 4.27 1420 13800 (1950) 266 (1956) 1440 341 367 512 541 1020 1620 1850 2580 5520
2021-01-04 00:45 4.28 1430 13800 (1950) 266 (1956) 1440 341 367 512 541 1020 1620 1850 2580 5520
2021-01-03 23:45 4.28 1430 6820 (1966) 266 (1956) 1280 342 376 509 538 1020 1540 1890 2420 3040
2021-01-03 22:45 4.29 1440 6820 (1966) 266 (1956) 1280 342 376 509 538 1020 1540 1890 2420 3040
2021-01-03 21:45 4.29 1440 6820 (1966) 266 (1956) 1280 342 376 509 538 1020 1540 1890 2420 3040
2021-01-03 20:45 4.30 1440 6820 (1966) 266 (1956) 1280 342 376 509 538 1020 1540 1890 2420 3040
2021-01-03 19:45 4.30 1440 6820 (1966) 266 (1956) 1280 342 376 509 538 1020 1540 1890 2420 3040
2021-01-03 18:45 4.31 1450 6820 (1966) 266 (1956) 1280 342 376 509 538 1020 1540 1890 2420 3040
2021-01-03 17:45 4.31 1450 6820 (1966) 266 (1956) 1280 342 376 509 538 1020 1540 1890 2420 3040
2021-01-03 16:45 4.31 1450 6820 (1966) 266 (1956) 1280 342 376 509 538 1020 1540 1890 2420 3040
2021-01-03 15:45 4.30 1440 6820 (1966) 266 (1956) 1280 342 376 509 538 1020 1540 1890 2420 3040
2021-01-03 14:45 4.33 1470 6820 (1966) 266 (1956) 1280 342 376 509 538 1020 1540 1890 2420 3040
2021-01-03 13:45 4.33 1470 6820 (1966) 266 (1956) 1280 342 376 509 538 1020 1540 1890 2420 3040
2021-01-03 12:45 4.33 1470 6820 (1966) 266 (1956) 1280 342 376 509 538 1020 1540 1890 2420 3040
2021-01-03 11:45 4.33 1470 6820 (1966) 266 (1956) 1280 342 376 509 538 1020 1540 1890 2420 3040
2021-01-03 10:45 4.35 1480 6820 (1966) 266 (1956) 1280 342 376 509 538 1020 1540 1890 2420 3040
2021-01-03 09:45 4.36 1490 6820 (1966) 266 (1956) 1280 342 376 509 538 1020 1540 1890 2420 3040
2021-01-03 08:45 4.36 1490 6820 (1966) 266 (1956) 1280 342 376 509 538 1020 1540 1890 2420 3040
2021-01-03 07:45 4.36 1490 6820 (1966) 266 (1956) 1280 342 376 509 538 1020 1540 1890 2420 3040
2021-01-03 06:45 4.37 1500 6820 (1966) 266 (1956) 1280 342 376 509 538 1020 1540 1890 2420 3040
2021-01-03 05:45 4.38 1500 6820 (1966) 266 (1956) 1280 342 376 509 538 1020 1540 1890 2420 3040
2021-01-03 04:45 4.38 1500 6820 (1966) 266 (1956) 1280 342 376 509 538 1020 1540 1890 2420 3040
2021-01-03 03:45 4.39 1510 6820 (1966) 266 (1956) 1280 342 376 509 538 1020 1540 1890 2420 3040
2021-01-03 02:45 4.39 1510 6820 (1966) 266 (1956) 1280 342 376 509 538 1020 1540 1890 2420 3040
2021-01-03 01:45 4.40 1520 6820 (1966) 266 (1956) 1280 342 376 509 538 1020 1540 1890 2420 3040
2021-01-03 00:45 4.41 1530 6820 (1966) 266 (1956) 1280 342 376 509 538 1020 1540 1890 2420 3040
2021-01-02 23:45 4.42 1530 15500 (1966) 270 (1956) 1380 345 368 484 542 917 1450 1720 2450 3280
2021-01-02 22:45 4.42 1530 15500 (1966) 270 (1956) 1380 345 368 484 542 917 1450 1720 2450 3280
2021-01-02 21:45 4.43 1540 15500 (1966) 270 (1956) 1380 345 368 484 542 917 1450 1720 2450 3280
2021-01-02 20:45 4.44 1550 15500 (1966) 270 (1956) 1380 345 368 484 542 917 1450 1720 2450 3280
2021-01-02 19:45 4.44 1550 15500 (1966) 270 (1956) 1380 345 368 484 542 917 1450 1720 2450 3280
2021-01-02 18:45 4.44 1550 15500 (1966) 270 (1956) 1380 345 368 484 542 917 1450 1720 2450 3280
2021-01-02 17:45 4.45 1560 15500 (1966) 270 (1956) 1380 345 368 484 542 917 1450 1720 2450 3280
2021-01-02 16:45 4.44 1550 15500 (1966) 270 (1956) 1380 345 368 484 542 917 1450 1720 2450 3280
2021-01-02 15:45 4.44 1550 15500 (1966) 270 (1956) 1380 345 368 484 542 917 1450 1720 2450 3280
2021-01-02 14:45 4.43 1540 15500 (1966) 270 (1956) 1380 345 368 484 542 917 1450 1720 2450 3280
2021-01-02 13:45 4.42 1530 15500 (1966) 270 (1956) 1380 345 368 484 542 917 1450 1720 2450 3280
2021-01-02 12:45 4.40 1520 15500 (1966) 270 (1956) 1380 345 368 484 542 917 1450 1720 2450 3280
2021-01-02 11:45 4.39 1510 15500 (1966) 270 (1956) 1380 345 368 484 542 917 1450 1720 2450 3280
2021-01-02 10:45 4.38 1500 15500 (1966) 270 (1956) 1380 345 368 484 542 917 1450 1720 2450 3280
2021-01-02 09:45 4.36 1490 15500 (1966) 270 (1956) 1380 345 368 484 542 917 1450 1720 2450 3280
2021-01-02 08:45 4.35 1480 15500 (1966) 270 (1956) 1380 345 368 484 542 917 1450 1720 2450 3280
2021-01-02 07:45 4.36 1490 15500 (1966) 270 (1956) 1380 345 368 484 542 917 1450 1720 2450 3280
2021-01-02 06:45 4.35 1480 15500 (1966) 270 (1956) 1380 345 368 484 542 917 1450 1720 2450 3280
2021-01-02 05:45 4.35 1480 15500 (1966) 270 (1956) 1380 345 368 484 542 917 1450 1720 2450 3280
2021-01-02 04:45 4.35 1480 15500 (1966) 270 (1956) 1380 345 368 484 542 917 1450 1720 2450 3280
2021-01-02 03:45 4.35 1480 15500 (1966) 270 (1956) 1380 345 368 484 542 917 1450 1720 2450 3280
2021-01-02 02:45 4.36 1490 15500 (1966) 270 (1956) 1380 345 368 484 542 917 1450 1720 2450 3280
2021-01-02 01:45 4.36 1490 15500 (1966) 270 (1956) 1380 345 368 484 542 917 1450 1720 2450 3280
2021-01-02 00:45 4.37 1500 15500 (1966) 270 (1956) 1380 345 368 484 542 917 1450 1720 2450 3280
2021-01-01 23:45 4.38 1500 10200 (1966) 266 (1956) 1420 333 354 490 533 936 1520 2080 2880 4510
2021-01-01 22:45 4.40 1520 10200 (1966) 266 (1956) 1420 333 354 490 533 936 1520 2080 2880 4510
2021-01-01 21:45 4.41 1530 10200 (1966) 266 (1956) 1420 333 354 490 533 936 1520 2080 2880 4510
2021-01-01 20:45 4.42 1530 10200 (1966) 266 (1956) 1420 333 354 490 533 936 1520 2080 2880 4510
2021-01-01 19:45 4.44 1550 10200 (1966) 266 (1956) 1420 333 354 490 533 936 1520 2080 2880 4510
2021-01-01 18:45 4.45 1560 10200 (1966) 266 (1956) 1420 333 354 490 533 936 1520 2080 2880 4510
2021-01-01 17:45 4.46 1560 10200 (1966) 266 (1956) 1420 333 354 490 533 936 1520 2080 2880 4510
2021-01-01 16:45 4.51 1600 10200 (1966) 266 (1956) 1420 333 354 490 533 936 1520 2080 2880 4510
2021-01-01 15:45 4.54 1620 10200 (1966) 266 (1956) 1420 333 354 490 533 936 1520 2080 2880 4510
2021-01-01 14:45 4.54 1620 10200 (1966) 266 (1956) 1420 333 354 490 533 936 1520 2080 2880 4510
2021-01-01 13:45 4.49 1590 10200 (1966) 266 (1956) 1420 333 354 490 533 936 1520 2080 2880 4510
2021-01-01 12:45 4.38 1500 10200 (1966) 266 (1956) 1420 333 354 490 533 936 1520 2080 2880 4510
2021-01-01 11:45 4.24 1400 10200 (1966) 266 (1956) 1420 333 354 490 533 936 1520 2080 2880 4510
2021-01-01 10:45 4.09 1290 10200 (1966) 266 (1956) 1420 333 354 490 533 936 1520 2080 2880 4510
2021-01-01 09:45 3.96 1200 10200 (1966) 266 (1956) 1420 333 354 490 533 936 1520 2080 2880 4510
2021-01-01 08:45 3.89 1150 10200 (1966) 266 (1956) 1420 333 354 490 533 936 1520 2080 2880 4510
2021-01-01 07:45 3.84 1110 10200 (1966) 266 (1956) 1420 333 354 490 533 936 1520 2080 2880 4510
2021-01-01 06:45 3.78 1070 10200 (1966) 266 (1956) 1420 333 354 490 533 936 1520 2080 2880 4510
2021-01-01 05:45 3.75 1050 10200 (1966) 266 (1956) 1420 333 354 490 533 936 1520 2080 2880 4510
2021-01-01 04:45 3.72 1030 10200 (1966) 266 (1956) 1420 333 354 490 533 936 1520 2080 2880 4510
2021-01-01 03:45 3.68 1010 10200 (1966) 266 (1956) 1420 333 354 490 533 936 1520 2080 2880 4510
2021-01-01 02:45 3.67 998 10200 (1966) 266 (1956) 1420 333 354 490 533 936 1520 2080 2880 4510
2021-01-01 01:45 3.66 992 10200 (1966) 266 (1956) 1420 333 354 490 533 936 1520 2080 2880 4510
2021-01-01 00:45 3.66 992 10200 (1966) 266 (1956) 1420 333 354 490 533 936 1520 2080 2880 4510
2020-12-31 23:45 3.65 985 6230 (1933) 266 (1956) 1350 333 354 480 513 896 1440 2080 3420 4860
2020-12-31 22:45 3.64 978 6230 (1933) 266 (1956) 1350 333 354 480 513 896 1440 2080 3420 4860
2020-12-31 21:45 3.64 978 6230 (1933) 266 (1956) 1350 333 354 480 513 896 1440 2080 3420 4860
2020-12-31 20:45 3.64 978 6230 (1933) 266 (1956) 1350 333 354 480 513 896 1440 2080 3420 4860
2020-12-31 19:45 3.64 978 6230 (1933) 266 (1956) 1350 333 354 480 513 896 1440 2080 3420 4860
2020-12-31 18:45 3.64 978 6230 (1933) 266 (1956) 1350 333 354 480 513 896 1440 2080 3420 4860
2020-12-31 17:45 3.64 978 6230 (1933) 266 (1956) 1350 333 354 480 513 896 1440 2080 3420 4860
2020-12-31 16:45 3.61 959 6230 (1933) 266 (1956) 1350 333 354 480 513 896 1440 2080 3420 4860
2020-12-31 15:45 3.64 978 6230 (1933) 266 (1956) 1350 333 354 480 513 896 1440 2080 3420 4860
2020-12-31 14:45 3.64 978 6230 (1933) 266 (1956) 1350 333 354 480 513 896 1440 2080 3420 4860
2020-12-31 13:45 3.64 978 6230 (1933) 266 (1956) 1350 333 354 480 513 896 1440 2080 3420 4860
2020-12-31 12:45 3.63 972 6230 (1933) 266 (1956) 1350 333 354 480 513 896 1440 2080 3420 4860
2020-12-31 11:45 3.63 972 6230 (1933) 266 (1956) 1350 333 354 480 513 896 1440 2080 3420 4860
2020-12-31 10:45 3.62 965 6230 (1933) 266 (1956) 1350 333 354 480 513 896 1440 2080 3420 4860
2020-12-31 09:45 3.62 965 6230 (1933) 266 (1956) 1350 333 354 480 513 896 1440 2080 3420 4860
2020-12-31 08:45 3.62 965 6230 (1933) 266 (1956) 1350 333 354 480 513 896 1440 2080 3420 4860
2020-12-31 07:45 3.61 959 6230 (1933) 266 (1956) 1350 333 354 480 513 896 1440 2080 3420 4860
2020-12-31 06:45 3.61 959 6230 (1933) 266 (1956) 1350 333 354 480 513 896 1440 2080 3420 4860
2020-12-31 05:45 3.61 959 6230 (1933) 266 (1956) 1350 333 354 480 513 896 1440 2080 3420 4860
2020-12-31 04:45 3.60 952 6230 (1933) 266 (1956) 1350 333 354 480 513 896 1440 2080 3420 4860
2020-12-31 03:45 3.60 952 6230 (1933) 266 (1956) 1350 333 354 480 513 896 1440 2080 3420 4860
2020-12-31 02:45 3.59 945 6230 (1933) 266 (1956) 1350 333 354 480 513 896 1440 2080 3420 4860
2020-12-31 01:45 3.59 945 6230 (1933) 266 (1956) 1350 333 354 480 513 896 1440 2080 3420 4860
2020-12-31 00:45 3.59 945 6230 (1933) 266 (1956) 1350 333 354 480 513 896 1440 2080 3420 4860
2020-12-30 23:45 3.59 945 12400 (2016) 266 (1956) 1320 334 352 456 493 830 1490 1690 2470 4780
2020-12-30 22:45 3.55 919 12400 (2016) 266 (1956) 1320 334 352 456 493 830 1490 1690 2470 4780
2020-12-30 21:45 3.57 932 12400 (2016) 266 (1956) 1320 334 352 456 493 830 1490 1690 2470 4780
2020-12-30 20:45 3.55 919 12400 (2016) 266 (1956) 1320 334 352 456 493 830 1490 1690 2470 4780
2020-12-30 19:45 3.56 926 12400 (2016) 266 (1956) 1320 334 352 456 493 830 1490 1690 2470 4780
2020-12-30 18:45 3.55 919 12400 (2016) 266 (1956) 1320 334 352 456 493 830 1490 1690 2470 4780
2020-12-30 17:45 3.54 913 12400 (2016) 266 (1956) 1320 334 352 456 493 830 1490 1690 2470 4780
2020-12-30 16:45 3.55 919 12400 (2016) 266 (1956) 1320 334 352 456 493 830 1490 1690 2470 4780
2020-12-30 15:45 3.54 913 12400 (2016) 266 (1956) 1320 334 352 456 493 830 1490 1690 2470 4780
2020-12-30 14:45 3.54 913 12400 (2016) 266 (1956) 1320 334 352 456 493 830 1490 1690 2470 4780
2020-12-30 13:45 3.54 913 12400 (2016) 266 (1956) 1320 334 352 456 493 830 1490 1690 2470 4780
2020-12-30 12:45 3.54 913 12400 (2016) 266 (1956) 1320 334 352 456 493 830 1490 1690 2470 4780
2020-12-30 11:45 3.53 906 12400 (2016) 266 (1956) 1320 334 352 456 493 830 1490 1690 2470 4780
2020-12-30 10:45 3.53 906 12400 (2016) 266 (1956) 1320 334 352 456 493 830 1490 1690 2470 4780
2020-12-30 09:45 3.52 900 12400 (2016) 266 (1956) 1320 334 352 456 493 830 1490 1690 2470 4780
2020-12-30 08:45 3.52 900 12400 (2016) 266 (1956) 1320 334 352 456 493 830 1490 1690 2470 4780
2020-12-30 07:45 3.48 874 12400 (2016) 266 (1956) 1320 334 352 456 493 830 1490 1690 2470 4780
2020-12-30 06:45 3.48 874 12400 (2016) 266 (1956) 1320 334 352 456 493 830 1490 1690 2470 4780
2020-12-30 05:45 3.48 874 12400 (2016) 266 (1956) 1320 334 352 456 493 830 1490 1690 2470 4780
2020-12-30 04:45 3.48 874 12400 (2016) 266 (1956) 1320 334 352 456 493 830 1490 1690 2470 4780
2020-12-30 03:45 3.47 867 12400 (2016) 266 (1956) 1320 334 352 456 493 830 1490 1690 2470 4780
2020-12-30 02:45 3.48 874 12400 (2016) 266 (1956) 1320 334 352 456 493 830 1490 1690 2470 4780
2020-12-30 01:45 3.48 874 12400 (2016) 266 (1956) 1320 334 352 456 493 830 1490 1690 2470 4780
2020-12-30 00:45 3.48 874 12400 (2016) 266 (1956) 1320 334 352 456 493 830 1490 1690 2470 4780
2020-12-29 23:45 3.48 874 26400 (2016) 262 (1956) 1510 340 357 448 471 778 1290 1560 2710 4130
2020-12-29 22:45 3.48 874 26400 (2016) 262 (1956) 1510 340 357 448 471 778 1290 1560 2710 4130
2020-12-29 21:45 3.48 874 26400 (2016) 262 (1956) 1510 340 357 448 471 778 1290 1560 2710 4130
2020-12-29 20:45 3.47 867 26400 (2016) 262 (1956) 1510 340 357 448 471 778 1290 1560 2710 4130
2020-12-29 19:45 3.48 874 26400 (2016) 262 (1956) 1510 340 357 448 471 778 1290 1560 2710 4130
2020-12-29 18:45 3.48 874 26400 (2016) 262 (1956) 1510 340 357 448 471 778 1290 1560 2710 4130
2020-12-29 17:45 3.48 874 26400 (2016) 262 (1956) 1510 340 357 448 471 778 1290 1560 2710 4130
2020-12-29 16:45 3.48 874 26400 (2016) 262 (1956) 1510 340 357 448 471 778 1290 1560 2710 4130
2020-12-29 15:45 3.48 874 26400 (2016) 262 (1956) 1510 340 357 448 471 778 1290 1560 2710 4130
2020-12-29 14:45 3.49 880 26400 (2016) 262 (1956) 1510 340 357 448 471 778 1290 1560 2710 4130
2020-12-29 13:45 3.45 854 26400 (2016) 262 (1956) 1510 340 357 448 471 778 1290 1560 2710 4130
2020-12-29 12:45 3.49 880 26400 (2016) 262 (1956) 1510 340 357 448 471 778 1290 1560 2710 4130
2020-12-29 11:45 3.47 867 26400 (2016) 262 (1956) 1510 340 357 448 471 778 1290 1560 2710 4130
2020-12-29 10:45 3.49 880 26400 (2016) 262 (1956) 1510 340 357 448 471 778 1290 1560 2710 4130
2020-12-29 09:45 3.49 880 26400 (2016) 262 (1956) 1510 340 357 448 471 778 1290 1560 2710 4130
2020-12-29 08:45 3.47 867 26400 (2016) 262 (1956) 1510 340 357 448 471 778 1290 1560 2710 4130
2020-12-29 07:45 3.46 861 26400 (2016) 262 (1956) 1510 340 357 448 471 778 1290 1560 2710 4130
2020-12-29 06:45 3.49 880 26400 (2016) 262 (1956) 1510 340 357 448 471 778 1290 1560 2710 4130
2020-12-29 05:45 3.49 880 26400 (2016) 262 (1956) 1510 340 357 448 471 778 1290 1560 2710 4130
2020-12-29 04:45 3.49 880 26400 (2016) 262 (1956) 1510 340 357 448 471 778 1290 1560 2710 4130
2020-12-29 03:45 3.49 880 26400 (2016) 262 (1956) 1510 340 357 448 471 778 1290 1560 2710 4130
2020-12-29 02:45 3.49 880 26400 (2016) 262 (1956) 1510 340 357 448 471 778 1290 1560 2710 4130
2020-12-29 01:45 3.49 880 26400 (2016) 262 (1956) 1510 340 357 448 471 778 1290 1560 2710 4130
2020-12-29 00:45 3.49 880 26400 (2016) 262 (1956) 1510 340 357 448 471 778 1290 1560 2710 4130
2020-12-28 23:45 3.49 880 18800 (1943) 262 (1956) 1500 343 358 434 468 783 1240 1350 2380 5720
2020-12-28 22:45 3.49 880 18800 (1943) 262 (1956) 1500 343 358 434 468 783 1240 1350 2380 5720
2020-12-28 21:45 3.50 887 18800 (1943) 262 (1956) 1500 343 358 434 468 783 1240 1350 2380 5720
2020-12-28 20:45 3.50 887 18800 (1943) 262 (1956) 1500 343 358 434 468 783 1240 1350 2380 5720
2020-12-28 19:45 3.50 887 18800 (1943) 262 (1956) 1500 343 358 434 468 783 1240 1350 2380 5720
2020-12-28 18:45 3.50 887 18800 (1943) 262 (1956) 1500 343 358 434 468 783 1240 1350 2380 5720
2020-12-28 17:45 3.50 887 18800 (1943) 262 (1956) 1500 343 358 434 468 783 1240 1350 2380 5720
2020-12-28 16:45 3.51 893 18800 (1943) 262 (1956) 1500 343 358 434 468 783 1240 1350 2380 5720
2020-12-28 15:45 3.51 893 18800 (1943) 262 (1956) 1500 343 358 434 468 783 1240 1350 2380 5720
2020-12-28 14:45 3.51 893 18800 (1943) 262 (1956) 1500 343 358 434 468 783 1240 1350 2380 5720
2020-12-28 13:45 3.51 893 18800 (1943) 262 (1956) 1500 343 358 434 468 783 1240 1350 2380 5720
2020-12-28 12:45 3.51 893 18800 (1943) 262 (1956) 1500 343 358 434 468 783 1240 1350 2380 5720
2020-12-28 11:45 3.51 893 18800 (1943) 262 (1956) 1500 343 358 434 468 783 1240 1350 2380 5720
2020-12-28 10:45 3.47 867 18800 (1943) 262 (1956) 1500 343 358 434 468 783 1240 1350 2380 5720
2020-12-28 09:45 3.52 900 18800 (1943) 262 (1956) 1500 343 358 434 468 783 1240 1350 2380 5720
2020-12-28 08:45 3.51 893 18800 (1943) 262 (1956) 1500 343 358 434 468 783 1240 1350 2380 5720
2020-12-28 07:45 3.51 893 18800 (1943) 262 (1956) 1500 343 358 434 468 783 1240 1350 2380 5720
2020-12-28 06:45 3.51 893 18800 (1943) 262 (1956) 1500 343 358 434 468 783 1240 1350 2380 5720
2020-12-28 05:45 3.51 893 18800 (1943) 262 (1956) 1500 343 358 434 468 783 1240 1350 2380 5720
2020-12-28 04:45 3.52 900 18800 (1943) 262 (1956) 1500 343 358 434 468 783 1240 1350 2380 5720
2020-12-28 03:45 3.52 900 18800 (1943) 262 (1956) 1500 343 358 434 468 783 1240 1350 2380 5720
2020-12-28 02:45 3.52 900 18800 (1943) 262 (1956) 1500 343 358 434 468 783 1240 1350 2380 5720
2020-12-28 01:45 3.52 900 18800 (1943) 262 (1956) 1500 343 358 434 468 783 1240 1350 2380 5720
2020-12-28 00:45 3.52 900 18800 (1943) 262 (1956) 1500 343 358 434 468 783 1240 1350 2380 5720
2020-12-27 23:45 3.52 900 8430 (1943) 262 (1956) 1240 347 358 422 463 784 1300 1400 2520 5190
2020-12-27 22:45 3.51 893 8430 (1943) 262 (1956) 1240 347 358 422 463 784 1300 1400 2520 5190
2020-12-27 21:45 3.52 900 8430 (1943) 262 (1956) 1240 347 358 422 463 784 1300 1400 2520 5190
2020-12-27 20:45 3.52 900 8430 (1943) 262 (1956) 1240 347 358 422 463 784 1300 1400 2520 5190
2020-12-27 19:45 3.51 893 8430 (1943) 262 (1956) 1240 347 358 422 463 784 1300 1400 2520 5190
2020-12-27 18:45 3.52 900 8430 (1943) 262 (1956) 1240 347 358 422 463 784 1300 1400 2520 5190
2020-12-27 17:45 3.52 900 8430 (1943) 262 (1956) 1240 347 358 422 463 784 1300 1400 2520 5190
2020-12-27 16:45 3.52 900 8430 (1943) 262 (1956) 1240 347 358 422 463 784 1300 1400 2520 5190
2020-12-27 15:45 3.52 900 8430 (1943) 262 (1956) 1240 347 358 422 463 784 1300 1400 2520 5190
2020-12-27 14:45 3.50 887 8430 (1943) 262 (1956) 1240 347 358 422 463 784 1300 1400 2520 5190
2020-12-27 13:45 3.48 874 8430 (1943) 262 (1956) 1240 347 358 422 463 784 1300 1400 2520 5190
2020-12-27 12:45 3.48 874 8430 (1943) 262 (1956) 1240 347 358 422 463 784 1300 1400 2520 5190
2020-12-27 11:45 3.48 874 8430 (1943) 262 (1956) 1240 347 358 422 463 784 1300 1400 2520 5190
2020-12-27 10:45 3.48 874 8430 (1943) 262 (1956) 1240 347 358 422 463 784 1300 1400 2520 5190
2020-12-27 09:45 3.49 880 8430 (1943) 262 (1956) 1240 347 358 422 463 784 1300 1400 2520 5190
2020-12-27 08:45 3.50 887 8430 (1943) 262 (1956) 1240 347 358 422 463 784 1300 1400 2520 5190
2020-12-27 07:45 3.52 900 8430 (1943) 262 (1956) 1240 347 358 422 463 784 1300 1400 2520 5190
2020-12-27 06:45 3.53 906 8430 (1943) 262 (1956) 1240 347 358 422 463 784 1300 1400 2520 5190
2020-12-27 05:45 3.53 906 8430 (1943) 262 (1956) 1240 347 358 422 463 784 1300 1400 2520 5190
2020-12-27 04:45 3.53 906 8430 (1943) 262 (1956) 1240 347 358 422 463 784 1300 1400 2520 5190
2020-12-27 03:45 3.53 906 8430 (1943) 262 (1956) 1240 347 358 422 463 784 1300 1400 2520 5190
2020-12-27 02:45 3.53 906 8430 (1943) 262 (1956) 1240 347 358 422 463 784 1300 1400 2520 5190
2020-12-27 01:45 3.53 906 8430 (1943) 262 (1956) 1240 347 358 422 463 784 1300 1400 2520 5190
2020-12-27 00:45 3.52 900 8430 (1943) 262 (1956) 1240 347 358 422 463 784 1300 1400 2520 5190
2020-12-26 23:45 3.53 906 8170 (1983) 262 (1956) 1150 323 353 423 456 767 1260 1430 1880 4030
2020-12-26 22:45 3.52 900 8170 (1983) 262 (1956) 1150 323 353 423 456 767 1260 1430 1880 4030
2020-12-26 21:45 3.53 906 8170 (1983) 262 (1956) 1150 323 353 423 456 767 1260 1430 1880 4030
2020-12-26 20:45 3.53 906 8170 (1983) 262 (1956) 1150 323 353 423 456 767 1260 1430 1880 4030
2020-12-26 19:45 3.53 906 8170 (1983) 262 (1956) 1150 323 353 423 456 767 1260 1430 1880 4030
2020-12-26 18:45 3.53 906 8170 (1983) 262 (1956) 1150 323 353 423 456 767 1260 1430 1880 4030
2020-12-26 17:45 3.53 906 8170 (1983) 262 (1956) 1150 323 353 423 456 767 1260 1430 1880 4030
2020-12-26 16:45 3.53 906 8170 (1983) 262 (1956) 1150 323 353 423 456 767 1260 1430 1880 4030
2020-12-26 15:45 3.53 906 8170 (1983) 262 (1956) 1150 323 353 423 456 767 1260 1430 1880 4030
2020-12-26 14:45 3.53 906 8170 (1983) 262 (1956) 1150 323 353 423 456 767 1260 1430 1880 4030
2020-12-26 13:45 3.50 887 8170 (1983) 262 (1956) 1150 323 353 423 456 767 1260 1430 1880 4030
2020-12-26 12:45 3.52 900 8170 (1983) 262 (1956) 1150 323 353 423 456 767 1260 1430 1880 4030
2020-12-26 11:45 3.49 880 8170 (1983) 262 (1956) 1150 323 353 423 456 767 1260 1430 1880 4030
2020-12-26 10:45 3.53 906 8170 (1983) 262 (1956) 1150 323 353 423 456 767 1260 1430 1880 4030
2020-12-26 09:45 3.53 906 8170 (1983) 262 (1956) 1150 323 353 423 456 767 1260 1430 1880 4030
2020-12-26 08:45 3.53 906 8170 (1983) 262 (1956) 1150 323 353 423 456 767 1260 1430 1880 4030
2020-12-26 07:45 3.53 906 8170 (1983) 262 (1956) 1150 323 353 423 456 767 1260 1430 1880 4030
2020-12-26 06:45 3.54 913 8170 (1983) 262 (1956) 1150 323 353 423 456 767 1260 1430 1880 4030
2020-12-26 05:45 3.53 906 8170 (1983) 262 (1956) 1150 323 353 423 456 767 1260 1430 1880 4030
2020-12-26 04:45 3.54 913 8170 (1983) 262 (1956) 1150 323 353 423 456 767 1260 1430 1880 4030
2020-12-26 03:45 3.54 913 8170 (1983) 262 (1956) 1150 323 353 423 456 767 1260 1430 1880 4030
2020-12-26 02:45 3.54 913 8170 (1983) 262 (1956) 1150 323 353 423 456 767 1260 1430 1880 4030
2020-12-26 01:45 3.54 913 8170 (1983) 262 (1956) 1150 323 353 423 456 767 1260 1430 1880 4030
2020-12-26 00:45 3.54 913 8170 (1983) 262 (1956) 1150 323 353 423 456 767 1260 1430 1880 4030
2020-12-25 23:45 3.54 913 19300 (1983) 266 (1956) 1320 319 351 428 457 774 1320 1490 2320 3490
2020-12-25 22:45 3.54 913 19300 (1983) 266 (1956) 1320 319 351 428 457 774 1320 1490 2320 3490
2020-12-25 21:45 3.54 913 19300 (1983) 266 (1956) 1320 319 351 428 457 774 1320 1490 2320 3490
2020-12-25 20:45 3.54 913 19300 (1983) 266 (1956) 1320 319 351 428 457 774 1320 1490 2320 3490
2020-12-25 19:45 3.55 919 19300 (1983) 266 (1956) 1320 319 351 428 457 774 1320 1490 2320 3490
2020-12-25 18:45 3.55 919 19300 (1983) 266 (1956) 1320 319 351 428 457 774 1320 1490 2320 3490
2020-12-25 17:45 3.55 919 19300 (1983) 266 (1956) 1320 319 351 428 457 774 1320 1490 2320 3490
2020-12-25 16:45 3.54 913 19300 (1983) 266 (1956) 1320 319 351 428 457 774 1320 1490 2320 3490
2020-12-25 15:45 3.56 926 19300 (1983) 266 (1956) 1320 319 351 428 457 774 1320 1490 2320 3490
2020-12-25 14:45 3.54 913 19300 (1983) 266 (1956) 1320 319 351 428 457 774 1320 1490 2320 3490
2020-12-25 13:45 3.55 919 19300 (1983) 266 (1956) 1320 319 351 428 457 774 1320 1490 2320 3490
2020-12-25 12:45 3.55 919 19300 (1983) 266 (1956) 1320 319 351 428 457 774 1320 1490 2320 3490
2020-12-25 11:45 3.55 919 19300 (1983) 266 (1956) 1320 319 351 428 457 774 1320 1490 2320 3490
2020-12-25 10:45 3.50 887 19300 (1983) 266 (1956) 1320 319 351 428 457 774 1320 1490 2320 3490
2020-12-25 09:45 3.55 919 19300 (1983) 266 (1956) 1320 319 351 428 457 774 1320 1490 2320 3490
2020-12-25 08:45 3.52 900 19300 (1983) 266 (1956) 1320 319 351 428 457 774 1320 1490 2320 3490
2020-12-25 07:45 3.56 926 19300 (1983) 266 (1956) 1320 319 351 428 457 774 1320 1490 2320 3490
2020-12-25 06:45 3.56 926 19300 (1983) 266 (1956) 1320 319 351 428 457 774 1320 1490 2320 3490
2020-12-25 05:45 3.56 926 19300 (1983) 266 (1956) 1320 319 351 428 457 774 1320 1490 2320 3490
2020-12-25 04:45 3.57 932 19300 (1983) 266 (1956) 1320 319 351 428 457 774 1320 1490 2320 3490
2020-12-25 03:45 3.57 932 19300 (1983) 266 (1956) 1320 319 351 428 457 774 1320 1490 2320 3490
2020-12-25 02:45 3.53 906 19300 (1983) 266 (1956) 1320 319 351 428 457 774 1320 1490 2320 3490
2020-12-25 01:45 3.57 932 19300 (1983) 266 (1956) 1320 319 351 428 457 774 1320 1490 2320 3490
2020-12-25 00:45 3.57 932 19300 (1983) 266 (1956) 1320 319 351 428 457 774 1320 1490 2320 3490
2020-12-24 23:45 3.57 932 13900 (1983) 270 (1956) 1300 331 350 423 463 806 1280 1440 2730 4960
2020-12-24 22:45 3.57 932 13900 (1983) 270 (1956) 1300 331 350 423 463 806 1280 1440 2730 4960
2020-12-24 21:45 3.57 932 13900 (1983) 270 (1956) 1300 331 350 423 463 806 1280 1440 2730 4960
2020-12-24 20:45 3.57 932 13900 (1983) 270 (1956) 1300 331 350 423 463 806 1280 1440 2730 4960
2020-12-24 19:45 3.57 932 13900 (1983) 270 (1956) 1300 331 350 423 463 806 1280 1440 2730 4960
2020-12-24 18:45 3.58 939 13900 (1983) 270 (1956) 1300 331 350 423 463 806 1280 1440 2730 4960
2020-12-24 17:45 3.58 939 13900 (1983) 270 (1956) 1300 331 350 423 463 806 1280 1440 2730 4960
2020-12-24 16:45 3.57 932 13900 (1983) 270 (1956) 1300 331 350 423 463 806 1280 1440 2730 4960
2020-12-24 15:45 3.54 913 13900 (1983) 270 (1956) 1300 331 350 423 463 806 1280 1440 2730 4960
2020-12-24 14:45 3.57 932 13900 (1983) 270 (1956) 1300 331 350 423 463 806 1280 1440 2730 4960
2020-12-24 13:45 3.53 906 13900 (1983) 270 (1956) 1300 331 350 423 463 806 1280 1440 2730 4960
2020-12-24 12:45 3.54 913 13900 (1983) 270 (1956) 1300 331 350 423 463 806 1280 1440 2730 4960
2020-12-24 11:45 3.55 919 13900 (1983) 270 (1956) 1300 331 350 423 463 806 1280 1440 2730 4960
2020-12-24 10:45 3.55 919 13900 (1983) 270 (1956) 1300 331 350 423 463 806 1280 1440 2730 4960
2020-12-24 09:45 3.55 919 13900 (1983) 270 (1956) 1300 331 350 423 463 806 1280 1440 2730 4960
2020-12-24 08:45 3.58 939 13900 (1983) 270 (1956) 1300 331 350 423 463 806 1280 1440 2730 4960
2020-12-24 07:45 3.60 952 13900 (1983) 270 (1956) 1300 331 350 423 463 806 1280 1440 2730 4960
2020-12-24 06:45 3.60 952 13900 (1983) 270 (1956) 1300 331 350 423 463 806 1280 1440 2730 4960
2020-12-24 05:45 3.60 952 13900 (1983) 270 (1956) 1300 331 350 423 463 806 1280 1440 2730 4960
2020-12-24 04:45 3.60 952 13900 (1983) 270 (1956) 1300 331 350 423 463 806 1280 1440 2730 4960
2020-12-24 03:45 3.60 952 13900 (1983) 270 (1956) 1300 331 350 423 463 806 1280 1440 2730 4960
2020-12-24 02:45 3.56 926 13900 (1983) 270 (1956) 1300 331 350 423 463 806 1280 1440 2730 4960
2020-12-24 01:45 3.59 945 13900 (1983) 270 (1956) 1300 331 350 423 463 806 1280 1440 2730 4960
2020-12-24 00:45 3.61 959 13900 (1983) 270 (1956) 1300 331 350 423 463 806 1280 1440 2730 4960
2020-12-23 23:45 3.55 919 10000 (1985) 270 (1956) 1070 330 352 428 460 782 1250 1440 1650 2650
2020-12-23 22:45 3.56 926 10000 (1985) 270 (1956) 1070 330 352 428 460 782 1250 1440 1650 2650
2020-12-23 21:45 3.55 919 10000 (1985) 270 (1956) 1070 330 352 428 460 782 1250 1440 1650 2650
2020-12-23 20:45 3.60 952 10000 (1985) 270 (1956) 1070 330 352 428 460 782 1250 1440 1650 2650
2020-12-23 19:45 3.56 926 10000 (1985) 270 (1956) 1070 330 352 428 460 782 1250 1440 1650 2650
2020-12-23 18:45 3.61 959 10000 (1985) 270 (1956) 1070 330 352 428 460 782 1250 1440 1650 2650
2020-12-23 17:45 3.59 945 10000 (1985) 270 (1956) 1070 330 352 428 460 782 1250 1440 1650 2650
2020-12-23 16:45 3.58 939 10000 (1985) 270 (1956) 1070 330 352 428 460 782 1250 1440 1650 2650
2020-12-23 15:45 3.54 913 10000 (1985) 270 (1956) 1070 330 352 428 460 782 1250 1440 1650 2650
2020-12-23 14:45 3.58 939 10000 (1985) 270 (1956) 1070 330 352 428 460 782 1250 1440 1650 2650
2020-12-23 13:45 3.59 945 10000 (1985) 270 (1956) 1070 330 352 428 460 782 1250 1440 1650 2650
2020-12-23 12:45 3.57 932 10000 (1985) 270 (1956) 1070 330 352 428 460 782 1250 1440 1650 2650
2020-12-23 11:45 3.56 926 10000 (1985) 270 (1956) 1070 330 352 428 460 782 1250 1440 1650 2650
2020-12-23 10:45 3.55 919 10000 (1985) 270 (1956) 1070 330 352 428 460 782 1250 1440 1650 2650
2020-12-23 09:45 3.56 926 10000 (1985) 270 (1956) 1070 330 352 428 460 782 1250 1440 1650 2650
2020-12-23 08:45 3.56 926 10000 (1985) 270 (1956) 1070 330 352 428 460 782 1250 1440 1650 2650
2020-12-23 07:45 3.57 932 10000 (1985) 270 (1956) 1070 330 352 428 460 782 1250 1440 1650 2650
2020-12-23 06:45 3.57 932 10000 (1985) 270 (1956) 1070 330 352 428 460 782 1250 1440 1650 2650
2020-12-23 05:45 3.55 919 10000 (1985) 270 (1956) 1070 330 352 428 460 782 1250 1440 1650 2650
2020-12-23 04:45 3.59 945 10000 (1985) 270 (1956) 1070 330 352 428 460 782 1250 1440 1650 2650
2020-12-23 03:45 3.59 945 10000 (1985) 270 (1956) 1070 330 352 428 460 782 1250 1440 1650 2650
2020-12-23 02:45 3.59 945 10000 (1985) 270 (1956) 1070 330 352 428 460 782 1250 1440 1650 2650
2020-12-23 01:45 3.59 945 10000 (1985) 270 (1956) 1070 330 352 428 460 782 1250 1440 1650 2650
2020-12-23 00:45 3.59 945 10000 (1985) 270 (1956) 1070 330 352 428 460 782 1250 1440 1650 2650
2020-12-22 23:45 3.59 945 12500 (1985) 270 (1956) 1180 333 351 419 452 779 1360 1430 1590 3330
2020-12-22 22:45 3.60 952 12500 (1985) 270 (1956) 1180 333 351 419 452 779 1360 1430 1590 3330
2020-12-22 21:45 3.60 952 12500 (1985) 270 (1956) 1180 333 351 419 452 779 1360 1430 1590 3330
2020-12-22 20:45 3.60 952 12500 (1985) 270 (1956) 1180 333 351 419 452 779 1360 1430 1590 3330
2020-12-22 19:45 3.60 952 12500 (1985) 270 (1956) 1180 333 351 419 452 779 1360 1430 1590 3330
2020-12-22 18:45 3.60 952 12500 (1985) 270 (1956) 1180 333 351 419 452 779 1360 1430 1590 3330
2020-12-22 17:45 3.60 952 12500 (1985) 270 (1956) 1180 333 351 419 452 779 1360 1430 1590 3330
2020-12-22 16:45 3.59 945 12500 (1985) 270 (1956) 1180 333 351 419 452 779 1360 1430 1590 3330
2020-12-22 15:45 3.55 919 12500 (1985) 270 (1956) 1180 333 351 419 452 779 1360 1430 1590 3330
2020-12-22 14:45 3.55 919 12500 (1985) 270 (1956) 1180 333 351 419 452 779 1360 1430 1590 3330
2020-12-22 13:45 3.57 932 12500 (1985) 270 (1956) 1180 333 351 419 452 779 1360 1430 1590 3330
2020-12-22 12:45 3.59 945 12500 (1985) 270 (1956) 1180 333 351 419 452 779 1360 1430 1590 3330
2020-12-22 11:45 3.60 952 12500 (1985) 270 (1956) 1180 333 351 419 452 779 1360 1430 1590 3330
2020-12-22 10:45 3.61 959 12500 (1985) 270 (1956) 1180 333 351 419 452 779 1360 1430 1590 3330
2020-12-22 09:45 3.60 952 12500 (1985) 270 (1956) 1180 333 351 419 452 779 1360 1430 1590 3330
2020-12-22 08:45 3.61 959 12500 (1985) 270 (1956) 1180 333 351 419 452 779 1360 1430 1590 3330
2020-12-22 07:45 3.61 959 12500 (1985) 270 (1956) 1180 333 351 419 452 779 1360 1430 1590 3330
2020-12-22 06:45 3.62 965 12500 (1985) 270 (1956) 1180 333 351 419 452 779 1360 1430 1590 3330
2020-12-22 05:45 3.62 965 12500 (1985) 270 (1956) 1180 333 351 419 452 779 1360 1430 1590 3330
2020-12-22 04:45 3.62 965 12500 (1985) 270 (1956) 1180 333 351 419 452 779 1360 1430 1590 3330
2020-12-22 03:45 3.62 965 12500 (1985) 270 (1956) 1180 333 351 419 452 779 1360 1430 1590 3330
2020-12-22 02:45 3.62 965 12500 (1985) 270 (1956) 1180 333 351 419 452 779 1360 1430 1590 3330
2020-12-22 01:45 3.62 965 12500 (1985) 270 (1956) 1180 333 351 419 452 779 1360 1430 1590 3330
2020-12-22 00:45 3.62 965 12500 (1985) 270 (1956) 1180 333 351 419 452 779 1360 1430 1590 3330
2020-12-21 23:45 3.62 965 9010 (2014) 274 (1956) 1110 328 350 420 462 772 1310 1440 1640 3160
2020-12-21 22:45 3.62 965 9010 (2014) 274 (1956) 1110 328 350 420 462 772 1310 1440 1640 3160
2020-12-21 21:45 3.63 972 9010 (2014) 274 (1956) 1110 328 350 420 462 772 1310 1440 1640 3160
2020-12-21 20:45 3.63 972 9010 (2014) 274 (1956) 1110 328 350 420 462 772 1310 1440 1640 3160
2020-12-21 19:45 3.63 972 9010 (2014) 274 (1956) 1110 328 350 420 462 772 1310 1440 1640 3160
2020-12-21 18:45 3.63 972 9010 (2014) 274 (1956) 1110 328 350 420 462 772 1310 1440 1640 3160
2020-12-21 17:45 3.63 972 9010 (2014) 274 (1956) 1110 328 350 420 462 772 1310 1440 1640 3160
2020-12-21 16:45 3.63 972 9010 (2014) 274 (1956) 1110 328 350 420 462 772 1310 1440 1640 3160
2020-12-21 15:45 3.63 972 9010 (2014) 274 (1956) 1110 328 350 420 462 772 1310 1440 1640 3160
2020-12-21 14:45 3.64 978 9010 (2014) 274 (1956) 1110 328 350 420 462 772 1310 1440 1640 3160
2020-12-21 13:45 3.63 972 9010 (2014) 274 (1956) 1110 328 350 420 462 772 1310 1440 1640 3160
2020-12-21 12:45 3.59 945 9010 (2014) 274 (1956) 1110 328 350 420 462 772 1310 1440 1640 3160
2020-12-21 11:45 3.63 972 9010 (2014) 274 (1956) 1110 328 350 420 462 772 1310 1440 1640 3160
2020-12-21 10:45 3.63 972 9010 (2014) 274 (1956) 1110 328 350 420 462 772 1310 1440 1640 3160
2020-12-21 09:45 3.61 959 9010 (2014) 274 (1956) 1110 328 350 420 462 772 1310 1440 1640 3160
2020-12-21 08:45 3.63 972 9010 (2014) 274 (1956) 1110 328 350 420 462 772 1310 1440 1640 3160
2020-12-21 07:45 3.64 978 9010 (2014) 274 (1956) 1110 328 350 420 462 772 1310 1440 1640 3160
2020-12-21 06:45 3.64 978 9010 (2014) 274 (1956) 1110 328 350 420 462 772 1310 1440 1640 3160
2020-12-21 05:45 3.64 978 9010 (2014) 274 (1956) 1110 328 350 420 462 772 1310 1440 1640 3160
2020-12-21 04:45 3.64 978 9010 (2014) 274 (1956) 1110 328 350 420 462 772 1310 1440 1640 3160
2020-12-21 03:45 3.65 985 9010 (2014) 274 (1956) 1110 328 350 420 462 772 1310 1440 1640 3160
2020-12-21 02:45 3.65 985 9010 (2014) 274 (1956) 1110 328 350 420 462 772 1310 1440 1640 3160
2020-12-21 01:45 3.65 985 9010 (2014) 274 (1956) 1110 328 350 420 462 772 1310 1440 1640 3160
2020-12-21 00:45 3.65 985 9010 (2014) 274 (1956) 1110 328 350 420 462 772 1310 1440 1640 3160
2020-12-20 23:45 3.65 985 2630 (1974) 279 (1956) 902 330 350 424 450 785 1240 1410 1600 1740
2020-12-20 22:45 3.65 985 2630 (1974) 279 (1956) 902 330 350 424 450 785 1240 1410 1600 1740
2020-12-20 21:45 3.65 985 2630 (1974) 279 (1956) 902 330 350 424 450 785 1240 1410 1600 1740
2020-12-20 20:45 3.65 985 2630 (1974) 279 (1956) 902 330 350 424 450 785 1240 1410 1600 1740
2020-12-20 19:45 3.65 985 2630 (1974) 279 (1956) 902 330 350 424 450 785 1240 1410 1600 1740
2020-12-20 18:45 3.65 985 2630 (1974) 279 (1956) 902 330 350 424 450 785 1240 1410 1600 1740
2020-12-20 17:45 3.65 985 2630 (1974) 279 (1956) 902 330 350 424 450 785 1240 1410 1600 1740
2020-12-20 16:45 3.66 992 2630 (1974) 279 (1956) 902 330 350 424 450 785 1240 1410 1600 1740
2020-12-20 15:45 3.64 978 2630 (1974) 279 (1956) 902 330 350 424 450 785 1240 1410 1600 1740
2020-12-20 14:45 3.66 992 2630 (1974) 279 (1956) 902 330 350 424 450 785 1240 1410 1600 1740
2020-12-20 13:45 3.65 985 2630 (1974) 279 (1956) 902 330 350 424 450 785 1240 1410 1600 1740
2020-12-20 12:45 3.66 992 2630 (1974) 279 (1956) 902 330 350 424 450 785 1240 1410 1600 1740
2020-12-20 11:45 3.66 992 2630 (1974) 279 (1956) 902 330 350 424 450 785 1240 1410 1600 1740
2020-12-20 10:45 3.66 992 2630 (1974) 279 (1956) 902 330 350 424 450 785 1240 1410 1600 1740
2020-12-20 09:45 3.66 992 2630 (1974) 279 (1956) 902 330 350 424 450 785 1240 1410 1600 1740
2020-12-20 08:45 3.67 998 2630 (1974) 279 (1956) 902 330 350 424 450 785 1240 1410 1600 1740
2020-12-20 07:45 3.67 998 2630 (1974) 279 (1956) 902 330 350 424 450 785 1240 1410 1600 1740
2020-12-20 06:45 3.66 992 2630 (1974) 279 (1956) 902 330 350 424 450 785 1240 1410 1600 1740
2020-12-20 05:45 3.67 998 2630 (1974) 279 (1956) 902 330 350 424 450 785 1240 1410 1600 1740
2020-12-20 04:45 3.68 1010 2630 (1974) 279 (1956) 902 330 350 424 450 785 1240 1410 1600 1740
2020-12-20 03:45 3.67 998 2630 (1974) 279 (1956) 902 330 350 424 450 785 1240 1410 1600 1740
2020-12-20 02:45 3.67 998 2630 (1974) 279 (1956) 902 330 350 424 450 785 1240 1410 1600 1740
2020-12-20 01:45 3.67 998 2630 (1974) 279 (1956) 902 330 350 424 450 785 1240 1410 1600 1740
2020-12-20 00:45 3.67 998 2630 (1974) 279 (1956) 902 330 350 424 450 785 1240 1410 1600 1740

A total of 743 rows are displayed for years 1930 through 2020.